Air Quality Table

TIMESTAMP NO2 O3 PM2.5 TEMP HUM AIRPRES WS WD NO
2021-06-18 13:00 0 ug/m3 83.45 ug/m3 19.4 ug/m3 25.96 C 53.61 % 1,006.27 mbar 2.32 m/s 207.33 Deg 0 ug/m3
2021-06-18 12:00 0 ug/m3 83.02 ug/m3 19.1 ug/m3 25.96 C 53.28 % 1,006.09 mbar 2.63 m/s 212.87 Deg 0 ug/m3
2021-06-18 11:00 0 ug/m3 85.48 ug/m3 20.3 ug/m3 25.96 C 54.29 % 1,006.20 mbar 2.38 m/s 207.68 Deg 0 ug/m3
2021-06-18 10:00 0 ug/m3 88.74 ug/m3 20.4 ug/m3 26 C 52.17 % 1,006.31 mbar 1.77 m/s 205 Deg 0 ug/m3
2021-06-18 09:00 0 ug/m3 81.87 ug/m3 22.1 ug/m3 25.27 C 56.24 % 1,006.32 mbar 1.44 m/s 210.57 Deg 0 ug/m3
2021-06-18 08:00 0 ug/m3 63.01 ug/m3 18.9 ug/m3 23.79 C 65.88 % 1,006.30 mbar 1.06 m/s 206.04 Deg 0 ug/m3
2021-06-18 07:00 0 ug/m3 46.1 ug/m3 17.5 ug/m3 22.55 C 72.33 % 1,006.15 mbar 0.97 m/s 185.51 Deg 0 ug/m3
2021-06-18 06:00 0 ug/m3 32.44 ug/m3 11 ug/m3 20.81 C 78.64 % 1,006.05 mbar 0.42 m/s 262.46 Deg 0 ug/m3
2021-06-18 05:00 0 ug/m3 36.02 ug/m3 9.5 ug/m3 20.48 C 77.58 % 1,005.58 mbar 0.46 m/s 267.69 Deg 0 ug/m3
2021-06-18 04:00 0 ug/m3 64.03 ug/m3 9.1 ug/m3 21.22 C 76.12 % 1,005.63 mbar 0.47 m/s 221.15 Deg 0 ug/m3
2021-06-18 03:00 0 ug/m3 80.69 ug/m3 7.8 ug/m3 21.54 C 74.99 % 1,005.25 mbar 0.71 m/s 249.8 Deg 0 ug/m3
2021-06-18 02:00 0 ug/m3 76.43 ug/m3 11.7 ug/m3 21.56 C 74.33 % 1,005.24 mbar 0.96 m/s 220.78 Deg 0 ug/m3
2021-06-18 01:00 0 ug/m3 83.42 ug/m3 12.5 ug/m3 21.67 C 73.77 % 1,005.18 mbar 1.2 m/s 195.07 Deg 0 ug/m3
2021-06-18 00:00 0 ug/m3 81.88 ug/m3 10.5 ug/m3 21.69 C 73.08 % 1,004.99 mbar 1.71 m/s 172.97 Deg 0 ug/m3
2021-06-17 23:00 0 ug/m3 73.69 ug/m3 13.7 ug/m3 21.69 C 72.02 % 1,005.93 mbar 1.16 m/s 199.75 Deg 0 ug/m3
2021-06-17 22:00 0 ug/m3 85.79 ug/m3 9.5 ug/m3 21.89 C 71.2 % 1,006.64 mbar 0.58 m/s 222.62 Deg 0 ug/m3
2021-06-17 21:00 0 ug/m3 80.52 ug/m3 8.4 ug/m3 22.04 C 69.81 % 1,006.37 mbar 0.67 m/s 245.41 Deg 0 ug/m3
2021-06-17 20:00 0 ug/m3 84.11 ug/m3 8.5 ug/m3 22.34 C 67.75 % 1,005.70 mbar 1.17 m/s 218.52 Deg 0 ug/m3
2021-06-17 19:00 0 ug/m3 89.16 ug/m3 9.8 ug/m3 23.04 C 63.61 % 1,005.43 mbar 1.63 m/s 211.3 Deg 0 ug/m3
2021-06-17 18:00 0 ug/m3 93.1 ug/m3 6.2 ug/m3 24.06 C 57.63 % 1,005.30 mbar 1.92 m/s 217.35 Deg 0 ug/m3
2021-06-17 17:00 0 ug/m3 92.01 ug/m3 10.6 ug/m3 24.75 C 54.36 % 1,005.31 mbar 2.2 m/s 227.95 Deg 0 ug/m3
2021-06-17 16:00 0 ug/m3 93.18 ug/m3 6.5 ug/m3 25.04 C 52.72 % 1,005.50 mbar 2.28 m/s 222.95 Deg 0 ug/m3
2021-06-17 15:00 0 ug/m3 94.88 ug/m3 11.3 ug/m3 25.02 C 52.46 % 1,005.71 mbar 2.44 m/s 217.25 Deg 0 ug/m3
2021-06-17 14:00 0 ug/m3 94.91 ug/m3 12.7 ug/m3 25.13 C 53 % 1,006.00 mbar 2.56 m/s 222.93 Deg 0 ug/m3
2021-06-17 13:00 0 ug/m3 95.02 ug/m3 10.3 ug/m3 25.16 C 53.58 % 1,005.96 mbar 2.75 m/s 217.32 Deg 0 ug/m3
2021-06-17 12:00 0 ug/m3 93.27 ug/m3 10.5 ug/m3 24.91 C 54.12 % 1,006.14 mbar 2.88 m/s 212.97 Deg 0 ug/m3
2021-06-17 11:00 0 ug/m3 92.42 ug/m3 9.1 ug/m3 25.01 C 51.56 % 1,006.17 mbar 2.8 m/s 214.52 Deg 0 ug/m3
2021-06-17 10:00 0 ug/m3 93.39 ug/m3 10.8 ug/m3 24.69 C 52.07 % 1,005.94 mbar 2.49 m/s 214.5 Deg 0 ug/m3
2021-06-17 09:00 0 ug/m3 86.87 ug/m3 13.5 ug/m3 24.31 C 55.56 % 1,005.49 mbar 2.36 m/s 193.25 Deg 0 ug/m3
2021-06-17 08:00 0 ug/m3 82.77 ug/m3 22.5 ug/m3 23.43 C 61 % 1,005.24 mbar 1.92 m/s 183.05 Deg 0 ug/m3
2021-06-17 07:00 0 ug/m3 44.64 ug/m3 12.3 ug/m3 22.49 C 72.78 % 1,005.19 mbar 1.06 m/s 180.83 Deg 0 ug/m3
2021-06-17 06:00 0 ug/m3 52.33 ug/m3 8.3 ug/m3 20.48 C 83.02 % 1,005.17 mbar 0.36 m/s 246.31 Deg 0 ug/m3
2021-06-17 05:00 0 ug/m3 63.65 ug/m3 7.4 ug/m3 19.66 C 84.28 % 1,004.88 mbar 0.28 m/s 240.53 Deg 0 ug/m3
2021-06-17 04:00 0 ug/m3 69.8 ug/m3 9 ug/m3 19.81 C 82.25 % 1,004.45 mbar 0.44 m/s 264.57 Deg 0 ug/m3
2021-06-17 03:00 0 ug/m3 76.06 ug/m3 5 ug/m3 20.24 C 79.66 % 1,004.42 mbar 0.43 m/s 236.7 Deg 0 ug/m3
2021-06-17 02:00 0 ug/m3 80.38 ug/m3 5.3 ug/m3 20.55 C 77.33 % 1,005.00 mbar 0.39 m/s 217.58 Deg 0 ug/m3
2021-06-17 01:00 0 ug/m3 85.89 ug/m3 6.4 ug/m3 20.88 C 74.93 % 1,005.35 mbar 0.56 m/s 235.02 Deg 0 ug/m3
2021-06-17 00:00 0 ug/m3 84.08 ug/m3 7.7 ug/m3 21.13 C 72.71 % 1,005.32 mbar 0.66 m/s 233.49 Deg 0 ug/m3
2021-06-16 23:00 0 ug/m3 84.55 ug/m3 7.1 ug/m3 21.59 C 71.51 % 1,005.21 mbar 0.64 m/s 215.38 Deg 0 ug/m3
2021-06-16 22:00 0 ug/m3 88.04 ug/m3 7.2 ug/m3 21.88 C 69.67 % 1,005.06 mbar 1.15 m/s 195.83 Deg 0 ug/m3
2021-06-16 21:00 0 ug/m3 91.16 ug/m3 6.7 ug/m3 22.17 C 65.99 % 1,004.62 mbar 1.52 m/s 199.32 Deg 0 ug/m3
2021-06-16 20:00 0 ug/m3 89.48 ug/m3 12.5 ug/m3 22.5 C 61.6 % 1,004.29 mbar 2 m/s 212.02 Deg 0 ug/m3
2021-06-16 19:00 0 ug/m3 91.75 ug/m3 11.8 ug/m3 23.14 C 59.45 % 1,004.10 mbar 2.46 m/s 217.88 Deg 0 ug/m3
2021-06-16 18:00 0 ug/m3 91.48 ug/m3 7.2 ug/m3 24.1 C 54.95 % 1,003.80 mbar 2.5 m/s 218.12 Deg 0 ug/m3
2021-06-16 17:00 0 ug/m3 90.99 ug/m3 7.8 ug/m3 24.79 C 49.61 % 1,003.85 mbar 2.95 m/s 214.3 Deg 0 ug/m3
2021-06-16 16:00 0 ug/m3 92.46 ug/m3 12.5 ug/m3 25.52 C 42.56 % 1,004.14 mbar 2.78 m/s 221.65 Deg 0 ug/m3
2021-06-16 15:00 0 ug/m3 93.65 ug/m3 18.2 ug/m3 26.08 C 37.98 % 1,004.22 mbar 2.89 m/s 217.82 Deg 0 ug/m3
2021-06-16 14:00 0 ug/m3 98.16 ug/m3 20.5 ug/m3 26.35 C 33.92 % 1,004.33 mbar 3.05 m/s 220.32 Deg 0 ug/m3
2021-06-16 13:00 17.67 ug/m3 96.18 ug/m3 18 ug/m3 26.4 C 35.36 % 1,004.55 mbar 2.48 m/s 203.55 Deg 3.94 ug/m3
2021-06-16 12:00 12.96 ug/m3 97.07 ug/m3 8.4 ug/m3 25.82 C 47.01 % 1,004.64 mbar 1.98 m/s 237.63 Deg 2.52 ug/m3
2021-06-16 11:00 6.39 ug/m3 98.46 ug/m3 11.9 ug/m3 26.29 C 29.43 % 1,004.70 mbar 1.76 m/s 205.33 Deg 1.45 ug/m3
2021-06-16 10:00 6.8 ug/m3 95.62 ug/m3 14 ug/m3 25.98 C 28.06 % 1,004.62 mbar 1.77 m/s 209.59 Deg 1.49 ug/m3
2021-06-16 09:00 11.32 ug/m3 88.36 ug/m3 20.4 ug/m3 25.27 C 33.57 % 1,004.60 mbar 1.37 m/s 220.22 Deg 2.39 ug/m3
2021-06-16 08:00 27.52 ug/m3 66.49 ug/m3 22.6 ug/m3 23.83 C 53.13 % 1,004.53 mbar 0.76 m/s 210.46 Deg 5.56 ug/m3
2021-06-16 07:00 45.46 ug/m3 45.93 ug/m3 16.5 ug/m3 22.5 C 66.73 % 1,004.64 mbar 0.63 m/s 208.8 Deg 12.74 ug/m3
2021-06-16 06:00 46.21 ug/m3 26.81 ug/m3 10.9 ug/m3 20.09 C 75.63 % 1,004.65 mbar 0.34 m/s 291.08 Deg 17.43 ug/m3
2021-06-16 05:00 9.85 ug/m3 57.33 ug/m3 9.2 ug/m3 19.02 C 76.7 % 1,004.35 mbar 0.32 m/s 282.94 Deg 0.03 ug/m3
2021-06-16 04:00 7.9 ug/m3 63.95 ug/m3 8.4 ug/m3 19.58 C 73.56 % 1,004.14 mbar 0.51 m/s 247.01 Deg 0.03 ug/m3
2021-06-16 03:00 6.28 ug/m3 75.25 ug/m3 8.9 ug/m3 20.19 C 71.53 % 1,004.33 mbar 0.8 m/s 177.87 Deg 0.1 ug/m3
2021-06-16 02:00 9.6 ug/m3 67.46 ug/m3 10.4 ug/m3 20.44 C 70.33 % 1,004.73 mbar 0.97 m/s 180.67 Deg -0.07 ug/m3
2021-06-16 01:00 7.31 ug/m3 68.74 ug/m3 10.5 ug/m3 20.69 C 68.77 % 1,004.93 mbar 0.94 m/s 173.78 Deg -0.09 ug/m3
2021-06-16 00:00 10.26 ug/m3 69.14 ug/m3 8.5 ug/m3 21.19 C 68.08 % 1,005.13 mbar 1.39 m/s 164.05 Deg 0.04 ug/m3
2021-06-15 23:00 5.44 ug/m3 78.76 ug/m3 8.5 ug/m3 21.56 C 67.38 % 1,005.14 mbar 1.51 m/s 164.35 Deg 0.25 ug/m3
2021-06-15 22:00 4.46 ug/m3 86.93 ug/m3 9.9 ug/m3 21.87 C 66.3 % 1,005.03 mbar 1.89 m/s 165.07 Deg 0.11 ug/m3
2021-06-15 21:00 4.62 ug/m3 88.92 ug/m3 11 ug/m3 22.16 C 64.44 % 1,004.61 mbar 2.56 m/s 161 Deg 0.25 ug/m3
2021-06-15 20:00 6.27 ug/m3 91.01 ug/m3 12 ug/m3 22.64 C 56.96 % 1,004.28 mbar 2.67 m/s 163.13 Deg 0.28 ug/m3
2021-06-15 19:00 6.71 ug/m3 91.87 ug/m3 15.1 ug/m3 23.28 C 53.89 % 1,004.01 mbar 2.83 m/s 139.75 Deg 0.47 ug/m3
2021-06-15 18:00 7.3 ug/m3 93.06 ug/m3 14.4 ug/m3 23.78 C 58.2 % 1,003.57 mbar 3.12 m/s 153.88 Deg 0.83 ug/m3
2021-06-15 17:00 8.65 ug/m3 92.34 ug/m3 15 ug/m3 24.24 C 62.16 % 1,003.66 mbar 3.22 m/s 147.92 Deg 1.61 ug/m3
2021-06-15 16:00 8.56 ug/m3 95.69 ug/m3 18.3 ug/m3 24.57 C 63.4 % 1,003.35 mbar 3.53 m/s 139.45 Deg 1.68 ug/m3
2021-06-15 15:00 8.74 ug/m3 99.96 ug/m3 13.6 ug/m3 24.85 C 65.41 % 1,003.38 mbar 3.51 m/s 180.12 Deg 1.93 ug/m3
2021-06-15 14:00 8.92 ug/m3 105.07 ug/m3 18.7 ug/m3 25.2 C 64.31 % 1,003.45 mbar 2.82 m/s 177.82 Deg 1.57 ug/m3
2021-06-15 13:00 5.99 ug/m3 110.58 ug/m3 15.8 ug/m3 24.81 C 68.87 % 1,003.66 mbar 3.28 m/s 215.23 Deg 1.04 ug/m3
2021-06-15 12:00 8.06 ug/m3 117.86 ug/m3 16.4 ug/m3 25.37 C 59.77 % 1,003.70 mbar 3.06 m/s 276.55 Deg 1.38 ug/m3
2021-06-15 11:00 5.97 ug/m3 120.39 ug/m3 13 ug/m3 25.2 C 57.13 % 1,003.61 mbar 2.74 m/s 88.17 Deg 0.82 ug/m3
2021-06-15 10:00 6.6 ug/m3 111.61 ug/m3 15.2 ug/m3 25.23 C 58.72 % 1,003.17 mbar 2.85 m/s 25.7 Deg 0.94 ug/m3
2021-06-15 09:00 7.07 ug/m3 100.96 ug/m3 13.4 ug/m3 24.32 C 67.15 % 1,002.98 mbar 2.48 m/s 104.22 Deg 0.93 ug/m3
2021-06-15 08:00 10.5 ug/m3 89.38 ug/m3 11.5 ug/m3 23.77 C 74.3 % 1,002.63 mbar 2.54 m/s 11.1 Deg 1.35 ug/m3
2021-06-15 07:00 8.93 ug/m3 92.38 ug/m3 11.3 ug/m3 23.07 C 78.51 % 1,002.20 mbar 1.44 m/s 338.05 Deg 0.79 ug/m3
2021-06-15 06:00 5.82 ug/m3 98.72 ug/m3 8.9 ug/m3 22.11 C 79.05 % 1,002.15 mbar 1.17 m/s 330.13 Deg 0.22 ug/m3
2021-06-15 05:00 1.88 ug/m3 96.09 ug/m3 9.2 ug/m3 21.35 C 82.86 % 1,001.94 mbar 0.9 m/s 329.97 Deg 0.06 ug/m3
2021-06-15 04:00 1.38 ug/m3 88.99 ug/m3 10.3 ug/m3 21.54 C 83.49 % 1,002.11 mbar 1.12 m/s 312.53 Deg -0.03 ug/m3
2021-06-15 03:00 1.67 ug/m3 89.23 ug/m3 9.3 ug/m3 21.42 C 83.65 % 1,002.27 mbar 0.77 m/s 315.87 Deg 0.07 ug/m3
2021-06-15 02:00 0.77 ug/m3 95.53 ug/m3 11.7 ug/m3 21.83 C 82.27 % 1,002.49 mbar 0.78 m/s 267.36 Deg 0.03 ug/m3
2021-06-15 01:00 2.05 ug/m3 101.42 ug/m3 16 ug/m3 21.49 C 79.14 % 1,002.66 mbar 0.46 m/s 227.39 Deg -0.05 ug/m3
2021-06-15 00:00 5.05 ug/m3 95.38 ug/m3 14.9 ug/m3 21.8 C 82.08 % 1,002.91 mbar 0.51 m/s 244.18 Deg 0.02 ug/m3
2021-06-14 23:00 3.56 ug/m3 101.13 ug/m3 12.6 ug/m3 22.34 C 78.11 % 1,003.27 mbar 0.49 m/s 285.74 Deg -0.06 ug/m3
2021-06-14 22:00 2.61 ug/m3 108.77 ug/m3 11.2 ug/m3 22.78 C 77.31 % 1,003.37 mbar 0.41 m/s 292.68 Deg 0.04 ug/m3
2021-06-14 21:00 3.16 ug/m3 112.66 ug/m3 8.7 ug/m3 23.3 C 66.09 % 1,003.16 mbar 0.64 m/s 243.94 Deg 0.06 ug/m3
2021-06-14 20:00 3.31 ug/m3 118.41 ug/m3 13.1 ug/m3 23.83 C 63.3 % 1,002.77 mbar 0.85 m/s 321.85 Deg 0.12 ug/m3
2021-06-14 19:00 3.76 ug/m3 116.41 ug/m3 11.8 ug/m3 25.26 C 55.01 % 1,002.58 mbar 1.25 m/s 307.4 Deg 0.13 ug/m3
2021-06-14 18:00 5.07 ug/m3 116.7 ug/m3 17.5 ug/m3 25.68 C 56.86 % 1,002.47 mbar 1.51 m/s 244.28 Deg 0.51 ug/m3
2021-06-14 17:00 5.95 ug/m3 124.49 ug/m3 17.9 ug/m3 26.42 C 49.05 % 1,002.87 mbar 2.51 m/s 218.47 Deg 0.67 ug/m3
2021-06-14 16:00 10.22 ug/m3 121.88 ug/m3 14.3 ug/m3 27.36 C 45.02 % 1,003.24 mbar 2.18 m/s 214.98 Deg 0.99 ug/m3
2021-06-14 15:00 9.28 ug/m3 123.66 ug/m3 9.4 ug/m3 27.29 C 40.77 % 1,003.72 mbar 2.09 m/s 241.23 Deg 1.3 ug/m3
2021-06-14 14:00 5.73 ug/m3 117.08 ug/m3 13.6 ug/m3 26.71 C 49.09 % 1,004.01 mbar 2.29 m/s 246.62 Deg 0.86 ug/m3
2021-06-14 13:00 4.38 ug/m3 116.97 ug/m3 28.9 ug/m3 26.22 C 51.86 % 1,004.47 mbar 2.12 m/s 29.53 Deg 0.54 ug/m3
2021-06-14 12:00 6.1 ug/m3 113.67 ug/m3 15.6 ug/m3 25.85 C 53.69 % 1,004.63 mbar 2.24 m/s 188.8 Deg 1.02 ug/m3
2021-06-14 11:00 7.17 ug/m3 107.8 ug/m3 15.1 ug/m3 26.03 C 58.04 % 1,004.47 mbar 2.63 m/s 19.68 Deg 1.05 ug/m3
2021-06-14 10:00 6.95 ug/m3 100.21 ug/m3 15.8 ug/m3 26.89 C 56.76 % 1,004.08 mbar 1.72 m/s 343.03 Deg 1.45 ug/m3
2021-06-14 09:00 7.65 ug/m3 93.45 ug/m3 14.4 ug/m3 25.37 C 67.86 % 1,004.09 mbar 1.54 m/s 335.2 Deg 1.86 ug/m3
2021-06-14 08:00 7.24 ug/m3 97.75 ug/m3 8.1 ug/m3 23.91 C 73.66 % 1,004.00 mbar 1.93 m/s 310.13 Deg 0.88 ug/m3
2021-06-14 07:00 7.72 ug/m3 99.68 ug/m3 15 ug/m3 22.87 C 77.35 % 1,004.14 mbar 1.14 m/s 313.68 Deg 0.59 ug/m3
2021-06-14 06:00 12.6 ug/m3 92.5 ug/m3 14.6 ug/m3 21.61 C 82.03 % 1,004.35 mbar 0.95 m/s 300.37 Deg 0.37 ug/m3
2021-06-14 05:00 10.2 ug/m3 98.06 ug/m3 12.6 ug/m3 21.53 C 66.34 % 1,004.10 mbar 0.72 m/s 307.28 Deg 0.08 ug/m3
2021-06-14 04:00 14.71 ug/m3 83.49 ug/m3 9.2 ug/m3 21.17 C 48.47 % 1,004.11 mbar 0.44 m/s 240.35 Deg 0.04 ug/m3
2021-06-14 03:00 9.88 ug/m3 91.2 ug/m3 13.5 ug/m3 21.71 C 47.79 % 1,004.33 mbar 0.47 m/s 220.56 Deg -0 ug/m3
2021-06-14 02:00 2.46 ug/m3 104.47 ug/m3 14 ug/m3 21.93 C 50.73 % 1,004.87 mbar 0.43 m/s 258.21 Deg 0.09 ug/m3
2021-06-14 01:00 1.04 ug/m3 117.05 ug/m3 15.4 ug/m3 22.39 C 51.58 % 1,005.34 mbar 0.55 m/s 318.11 Deg -0.03 ug/m3
2021-06-14 00:00 2.06 ug/m3 113.73 ug/m3 13.9 ug/m3 22.65 C 48.88 % 1,005.74 mbar 0.49 m/s 317.11 Deg 0 ug/m3
2021-06-13 23:00 2.89 ug/m3 107.32 ug/m3 18.3 ug/m3 21.8 C 62 % 1,005.98 mbar 0.64 m/s 325.13 Deg 0.03 ug/m3
2021-06-13 22:00 5.21 ug/m3 105.2 ug/m3 19.5 ug/m3 21.91 C 80.42 % 1,006.07 mbar 0.56 m/s 326.82 Deg -0.08 ug/m3
2021-06-13 21:00 4.5 ug/m3 112.76 ug/m3 14.9 ug/m3 22.17 C 80.6 % 1,005.79 mbar 1.07 m/s 343.59 Deg 0.08 ug/m3
2021-06-13 20:00 8.86 ug/m3 100.08 ug/m3 11.9 ug/m3 22.92 C 77.23 % 1,005.48 mbar 0.88 m/s 337.18 Deg 0.08 ug/m3
2021-06-13 19:00 3.37 ug/m3 105.36 ug/m3 15.7 ug/m3 24.09 C 71.18 % 1,005.31 mbar 1.25 m/s 323.85 Deg 0.17 ug/m3
2021-06-13 18:00 2.31 ug/m3 126.84 ug/m3 16.5 ug/m3 25.54 C 61.4 % 1,005.19 mbar 1.43 m/s 296.51 Deg 0.07 ug/m3
2021-06-13 17:00 6.86 ug/m3 126.96 ug/m3 18.4 ug/m3 26.12 C 55.02 % 1,005.26 mbar 1.61 m/s 253.53 Deg 0.56 ug/m3
2021-06-13 16:00 4.15 ug/m3 138.06 ug/m3 17.6 ug/m3 26.31 C 52.89 % 1,005.27 mbar 2.36 m/s 212.77 Deg 0.32 ug/m3
2021-06-13 15:00 3.84 ug/m3 138.2 ug/m3 14.4 ug/m3 27.05 C 49.25 % 1,005.32 mbar 2.27 m/s 222.25 Deg 0.23 ug/m3
2021-06-13 14:00 3.27 ug/m3 133.06 ug/m3 14.2 ug/m3 26.83 C 45.15 % 1,005.72 mbar 1.92 m/s 217.85 Deg 0.24 ug/m3
2021-06-13 13:00 4.01 ug/m3 129.09 ug/m3 15.4 ug/m3 26.21 C 46.86 % 1,006.17 mbar 2.14 m/s 227.22 Deg 0.5 ug/m3
2021-06-13 12:00 3.32 ug/m3 125.58 ug/m3 17.1 ug/m3 25.87 C 46.95 % 1,006.44 mbar 2.18 m/s 275.25 Deg 0.35 ug/m3
2021-06-13 11:00 4.58 ug/m3 120.04 ug/m3 18 ug/m3 25.91 C 47.89 % 1,006.25 mbar 2.09 m/s 237.35 Deg 0.62 ug/m3
2021-06-13 10:00 3.67 ug/m3 113.44 ug/m3 14.6 ug/m3 24.83 C 56.13 % 1,006.15 mbar 1.64 m/s 227.56 Deg 0.46 ug/m3
2021-06-13 09:00 4.04 ug/m3 107.93 ug/m3 17 ug/m3 23.8 C 68.75 % 1,006.11 mbar 1.34 m/s 255.6 Deg 0.67 ug/m3
2021-06-13 08:00 4.77 ug/m3 105.47 ug/m3 11.1 ug/m3 23.13 C 72.13 % 1,005.97 mbar 1.16 m/s 14.38 Deg 0.6 ug/m3
2021-06-13 07:00 4.77 ug/m3 97.49 ug/m3 21.1 ug/m3 21.99 C 84.31 % 1,005.51 mbar 0.67 m/s 262.85 Deg 0.36 ug/m3
2021-06-13 06:00 14.67 ug/m3 69.84 ug/m3 19.8 ug/m3 20.16 C 91.81 % 1,005.03 mbar 0.47 m/s 259.97 Deg 0.49 ug/m3
2021-06-13 05:00 4.87 ug/m3 77.04 ug/m3 16.7 ug/m3 19.79 C 90.91 % 1,004.82 mbar 0.62 m/s 280.94 Deg 0.06 ug/m3
2021-06-13 04:00 2.35 ug/m3 80.92 ug/m3 15.6 ug/m3 19.83 C 90.29 % 1,004.57 mbar 0.54 m/s 309.34 Deg 0.01 ug/m3
2021-06-13 03:00 1.66 ug/m3 91.28 ug/m3 15.6 ug/m3 20.33 C 88.3 % 1,004.88 mbar 0.65 m/s 329.43 Deg 0.09 ug/m3
2021-06-13 02:00 3.2 ug/m3 90.45 ug/m3 11.7 ug/m3 20.76 C 80.51 % 1,005.07 mbar 0.66 m/s 252.01 Deg 0.09 ug/m3
2021-06-13 01:00 4.5 ug/m3 94.4 ug/m3 11.9 ug/m3 21.24 C 72.18 % 1,005.31 mbar 0.47 m/s 314.47 Deg -0.08 ug/m3
2021-06-13 00:00 10.66 ug/m3 88.31 ug/m3 13.8 ug/m3 21.77 C 62.15 % 1,005.60 mbar 0.68 m/s 314.86 Deg 0.06 ug/m3
2021-06-12 23:00 5.39 ug/m3 101.99 ug/m3 14.3 ug/m3 22.48 C 51.8 % 1,005.52 mbar 0.53 m/s 311.54 Deg -0.02 ug/m3
2021-06-12 22:00 10.31 ug/m3 92.11 ug/m3 16.3 ug/m3 21.69 C 61.15 % 1,005.24 mbar 0.61 m/s 296.23 Deg 0.07 ug/m3
2021-06-12 21:00 9.2 ug/m3 96.04 ug/m3 14.6 ug/m3 21.94 C 79.41 % 1,004.90 mbar 0.96 m/s 325.64 Deg -0.1 ug/m3
2021-06-12 20:00 4.26 ug/m3 102.72 ug/m3 17.6 ug/m3 22.48 C 79.69 % 1,004.69 mbar 1.33 m/s 341.29 Deg -0.11 ug/m3
2021-06-12 19:00 8.6 ug/m3 104.04 ug/m3 18.2 ug/m3 23.34 C 73.96 % 1,004.43 mbar 1.36 m/s 343.57 Deg 0.18 ug/m3
2021-06-12 18:00 2.88 ug/m3 116.15 ug/m3 18.8 ug/m3 24.92 C 63.88 % 1,003.80 mbar 1.41 m/s 325.25 Deg 0.12 ug/m3
2021-06-12 17:00 6.67 ug/m3 113.43 ug/m3 18.4 ug/m3 26.15 C 62.41 % 1,003.71 mbar 1.6 m/s 304.75 Deg 0.81 ug/m3
2021-06-12 16:00 4.01 ug/m3 114.83 ug/m3 16.4 ug/m3 26.7 C 61.27 % 1,003.90 mbar 1.72 m/s 226.32 Deg 0.38 ug/m3
2021-06-12 15:00 9.95 ug/m3 113.74 ug/m3 14.7 ug/m3 26.47 C 61.63 % 1,003.70 mbar 2.17 m/s 245.17 Deg 1.12 ug/m3
2021-06-12 14:00 7.85 ug/m3 111.84 ug/m3 12 ug/m3 27.37 C 55.69 % 1,003.99 mbar 2.19 m/s 219.98 Deg 1.2 ug/m3
2021-06-12 13:00 2.22 ug/m3 119.61 ug/m3 17.1 ug/m3 28.33 C 39.84 % 1,004.24 mbar 2.1 m/s 180.33 Deg 0.35 ug/m3
2021-06-12 12:00 3.63 ug/m3 117.08 ug/m3 18.8 ug/m3 27.81 C 42.47 % 1,004.46 mbar 1.78 m/s 174.72 Deg 0.37 ug/m3
2021-06-12 11:00 5.2 ug/m3 114.56 ug/m3 13.9 ug/m3 26.79 C 42.94 % 1,004.67 mbar 1.69 m/s 343.82 Deg 0.56 ug/m3
2021-06-12 10:00 5.96 ug/m3 109.21 ug/m3 13.2 ug/m3 25.2 C 53.66 % 1,004.75 mbar 1.87 m/s 341.45 Deg 0.78 ug/m3
2021-06-12 09:00 3.44 ug/m3 106.27 ug/m3 12.3 ug/m3 24.11 C 62.43 % 1,004.58 mbar 1.66 m/s 337.9 Deg 0.48 ug/m3
2021-06-12 08:00 4.65 ug/m3 103.46 ug/m3 9.1 ug/m3 22.85 C 73.09 % 1,004.57 mbar 1.34 m/s 337.74 Deg 0.77 ug/m3
2021-06-12 07:00 5.43 ug/m3 100.96 ug/m3 14.9 ug/m3 21.41 C 82.88 % 1,004.41 mbar 1.59 m/s 326.05 Deg 0.5 ug/m3
2021-06-12 06:00 6.28 ug/m3 91.28 ug/m3 14.7 ug/m3 20.12 C 90.97 % 1,004.34 mbar 1.2 m/s 320.85 Deg 0.15 ug/m3
2021-06-12 05:00 4.45 ug/m3 85.85 ug/m3 15.5 ug/m3 19.71 C 91.14 % 1,004.03 mbar 0.77 m/s 343.59 Deg 0 ug/m3
2021-06-12 04:00 3.06 ug/m3 95.54 ug/m3 20.7 ug/m3 19.99 C 88.3 % 1,003.76 mbar 0.59 m/s 298.91 Deg 0.09 ug/m3
2021-06-12 03:00 4.44 ug/m3 79.29 ug/m3 22 ug/m3 19.64 C 83.71 % 1,003.79 mbar 0.44 m/s 227.52 Deg 0.06 ug/m3
2021-06-12 02:00 6.62 ug/m3 71.14 ug/m3 20.4 ug/m3 19.72 C 84.77 % 1,003.95 mbar 0.5 m/s 294.21 Deg 0.09 ug/m3
2021-06-12 01:00 10.31 ug/m3 80.71 ug/m3 24.6 ug/m3 20.18 C 80.23 % 1,004.15 mbar 0.53 m/s 291.82 Deg -0.15 ug/m3
2021-06-12 00:00 20.01 ug/m3 66.32 ug/m3 22.9 ug/m3 20.32 C 83.21 % 1,004.20 mbar 0.47 m/s 278.41 Deg 0.06 ug/m3
2021-06-11 23:00 10.72 ug/m3 85.04 ug/m3 19.8 ug/m3 20.9 C 84.15 % 1,004.25 mbar 0.6 m/s 300.4 Deg 0.06 ug/m3
2021-06-11 22:00 9.41 ug/m3 100.34 ug/m3 16.2 ug/m3 21.33 C 81.49 % 1,004.08 mbar 0.85 m/s 339.87 Deg -0 ug/m3
2021-06-11 21:00 8.23 ug/m3 111.22 ug/m3 13.8 ug/m3 21.76 C 76.74 % 1,003.42 mbar 0.8 m/s 246.55 Deg -0.08 ug/m3
2021-06-11 20:00 5.14 ug/m3 118.47 ug/m3 11.1 ug/m3 22.14 C 74.41 % 1,002.95 mbar 1.39 m/s 18.65 Deg -0.07 ug/m3
2021-06-11 19:00 6.43 ug/m3 113.75 ug/m3 17.5 ug/m3 23.29 C 70.06 % 1,002.47 mbar 1.84 m/s 19.6 Deg 0.16 ug/m3
2021-06-11 18:00 5.29 ug/m3 114.54 ug/m3 18.4 ug/m3 24.94 C 60.42 % 1,002.07 mbar 1.51 m/s 178.38 Deg 0.25 ug/m3
2021-06-11 17:00 8.03 ug/m3 124.32 ug/m3 17.4 ug/m3 25.71 C 57.5 % 1,001.98 mbar 2.11 m/s 17.03 Deg 0.67 ug/m3
2021-06-11 16:00 8.31 ug/m3 130.9 ug/m3 16.8 ug/m3 26.46 C 52.15 % 1,002.05 mbar 2.02 m/s 29.6 Deg 0.56 ug/m3
2021-06-11 15:00 6.65 ug/m3 134.38 ug/m3 18.2 ug/m3 26.88 C 47.59 % 1,002.31 mbar 1.94 m/s 169.19 Deg 0.49 ug/m3
2021-06-11 14:00 6.73 ug/m3 61.21 ug/m3 15 ug/m3 26.11 C 50.77 % 1,002.71 mbar 1.78 m/s 176.95 Deg 0.6 ug/m3
2021-06-11 13:00 8.78 ug/m3 0 ug/m3 13.9 ug/m3 26.64 C 44.59 % 1,002.87 mbar 2 m/s 14.18 Deg 1.15 ug/m3
2021-06-11 12:00 6.95 ug/m3 0 ug/m3 14.5 ug/m3 26.37 C 43.04 % 1,003.06 mbar 2.05 m/s 14.9 Deg 0.94 ug/m3
2021-06-11 11:00 6.33 ug/m3 0 ug/m3 11.6 ug/m3 25.88 C 44.78 % 1,002.94 mbar 1.89 m/s 16.33 Deg 0.9 ug/m3
2021-06-11 10:00 5.41 ug/m3 0 ug/m3 15 ug/m3 25.26 C 49.08 % 1,002.64 mbar 2.01 m/s 15.53 Deg 0.74 ug/m3
2021-06-11 09:00 8.75 ug/m3 0 ug/m3 15.4 ug/m3 24.65 C 52.55 % 1,002.55 mbar 1.74 m/s 16.23 Deg 1.17 ug/m3
2021-06-11 08:00 11.51 ug/m3 0 ug/m3 18 ug/m3 23.31 C 62.22 % 1,002.48 mbar 1.63 m/s 104.27 Deg 1.46 ug/m3
2021-06-11 07:00 18.24 ug/m3 0 ug/m3 14.9 ug/m3 22.5 C 66.39 % 1,002.23 mbar 1.13 m/s 257.52 Deg 1.57 ug/m3
2021-06-11 06:00 52.23 ug/m3 0 ug/m3 10.7 ug/m3 20.57 C 73 % 1,002.18 mbar 0.44 m/s 257.25 Deg 8.99 ug/m3
2021-06-11 05:00 4.7 ug/m3 0 ug/m3 12.2 ug/m3 19.92 C 75.18 % 1,001.95 mbar 0.5 m/s 242.67 Deg -0.01 ug/m3
2021-06-11 04:00 3.59 ug/m3 0 ug/m3 14.1 ug/m3 19.92 C 82.82 % 1,001.79 mbar 0.48 m/s 305.89 Deg 0.01 ug/m3
2021-06-11 03:00 2.9 ug/m3 0 ug/m3 12.2 ug/m3 20.27 C 78.4 % 1,001.87 mbar 0.51 m/s 294.09 Deg -0.03 ug/m3
2021-06-11 02:00 3.15 ug/m3 0 ug/m3 9.8 ug/m3 20.79 C 73.41 % 1,002.20 mbar 0.39 m/s 318.09 Deg 0.07 ug/m3
2021-06-11 01:00 4.22 ug/m3 0 ug/m3 9.7 ug/m3 21.23 C 67.65 % 1,002.35 mbar 0.51 m/s 309.85 Deg 0.06 ug/m3
2021-06-11 00:00 4.84 ug/m3 0 ug/m3 10 ug/m3 21.15 C 64.29 % 1,002.51 mbar 0.43 m/s 308.24 Deg -0.02 ug/m3
2021-06-10 23:00 10.47 ug/m3 0 ug/m3 10 ug/m3 21.33 C 68.93 % 1,002.79 mbar 0.41 m/s 279.69 Deg 0.03 ug/m3
2021-06-10 22:00 10.01 ug/m3 0 ug/m3 11.3 ug/m3 21.44 C 75.28 % 1,002.82 mbar 0.47 m/s 303.01 Deg -0.09 ug/m3
2021-06-10 21:00 9.44 ug/m3 0 ug/m3 9.2 ug/m3 21.72 C 76.45 % 1,002.91 mbar 1.03 m/s 164.14 Deg -0.03 ug/m3
2021-06-10 20:00 6.04 ug/m3 0 ug/m3 7.3 ug/m3 22.18 C 71.17 % 1,002.45 mbar 1.6 m/s 17.73 Deg -0.12 ug/m3
2021-06-10 19:00 5.68 ug/m3 0 ug/m3 8.6 ug/m3 22.5 C 65.66 % 1,001.81 mbar 2 m/s 14.6 Deg 0.09 ug/m3
2021-06-10 18:00 5.24 ug/m3 0 ug/m3 11.3 ug/m3 23.42 C 63.68 % 1,001.58 mbar 2.33 m/s 12.88 Deg 0.38 ug/m3
2021-06-10 17:00 2.92 ug/m3 0 ug/m3 12.3 ug/m3 25.18 C 55.09 % 1,001.66 mbar 1.46 m/s 339.33 Deg 0.42 ug/m3
2021-06-10 16:00 2.71 ug/m3 0 ug/m3 12.8 ug/m3 26 C 52.48 % 1,001.67 mbar 1.68 m/s 340.53 Deg 0.25 ug/m3
2021-06-10 15:00 3.41 ug/m3 0 ug/m3 11.5 ug/m3 25.7 C 54.07 % 1,001.80 mbar 1.69 m/s 255.61 Deg 0.42 ug/m3
2021-06-10 14:00 4.3 ug/m3 0 ug/m3 14.2 ug/m3 25.15 C 55.22 % 1,002.27 mbar 1.51 m/s 244.83 Deg 0.4 ug/m3
2021-06-10 13:00 7.65 ug/m3 0 ug/m3 15.1 ug/m3 25.64 C 51.04 % 1,002.30 mbar 1.8 m/s 250.88 Deg 1.15 ug/m3
2021-06-10 12:00 5.35 ug/m3 0 ug/m3 14.8 ug/m3 25.41 C 49.87 % 1,002.47 mbar 2.05 m/s 299.28 Deg 0.82 ug/m3
2021-06-10 11:00 5.22 ug/m3 0 ug/m3 11 ug/m3 25.39 C 52.14 % 1,002.38 mbar 1.6 m/s 160.6 Deg 0.78 ug/m3
2021-06-10 10:00 6.76 ug/m3 0 ug/m3 9.9 ug/m3 24.43 C 59.21 % 1,002.08 mbar 1.96 m/s 101.78 Deg 0.99 ug/m3
2021-06-10 09:00 6.88 ug/m3 0 ug/m3 11.9 ug/m3 23.74 C 64.35 % 1,001.84 mbar 1.29 m/s 268.72 Deg 1.08 ug/m3
2021-06-10 08:00 22.8 ug/m3 0 ug/m3 9 ug/m3 22.07 C 72.84 % 1,001.79 mbar 1.68 m/s 21.87 Deg 5.02 ug/m3
2021-06-10 07:00 14.52 ug/m3 0 ug/m3 11.1 ug/m3 21.38 C 77.84 % 1,001.36 mbar 1.75 m/s 14.9 Deg 1.61 ug/m3
2021-06-10 06:00 13.12 ug/m3 0 ug/m3 9.2 ug/m3 20.18 C 86.15 % 1,001.15 mbar 1.24 m/s 177.45 Deg 0.75 ug/m3
2021-06-10 05:00 8.32 ug/m3 0 ug/m3 9.5 ug/m3 19.55 C 86.99 % 1,000.87 mbar 1.6 m/s 265.02 Deg 0.09 ug/m3
2021-06-10 04:00 5.99 ug/m3 0 ug/m3 11.9 ug/m3 19.77 C 86.04 % 1,000.85 mbar 1.71 m/s 349.87 Deg -0.15 ug/m3
2021-06-10 03:00 4.95 ug/m3 0 ug/m3 12.1 ug/m3 20.12 C 84.37 % 1,001.16 mbar 1.82 m/s 352.63 Deg 0.06 ug/m3
2021-06-10 02:00 3.37 ug/m3 0 ug/m3 9.8 ug/m3 20.1 C 83.65 % 1,001.51 mbar 1.45 m/s 344.78 Deg -0.15 ug/m3
2021-06-10 01:00 2.89 ug/m3 0 ug/m3 8 ug/m3 20.24 C 87.48 % 1,001.75 mbar 1.19 m/s 328.84 Deg 0.06 ug/m3
2021-06-10 00:00 1.2 ug/m3 0 ug/m3 7.3 ug/m3 20.41 C 88.14 % 1,002.05 mbar 1.6 m/s 327.62 Deg 0.04 ug/m3
2021-06-09 23:00 2.19 ug/m3 0 ug/m3 8.9 ug/m3 20.55 C 86.26 % 1,002.36 mbar 1.17 m/s 320.74 Deg 0.1 ug/m3
2021-06-09 22:00 1.45 ug/m3 0 ug/m3 7.5 ug/m3 20.73 C 79.5 % 1,002.66 mbar 1.47 m/s 319.74 Deg 0.03 ug/m3
2021-06-09 21:00 2.31 ug/m3 0 ug/m3 9.2 ug/m3 20.69 C 76.66 % 1,002.43 mbar 0.96 m/s 322.52 Deg -0.17 ug/m3
2021-06-09 20:00 2.12 ug/m3 0 ug/m3 9.7 ug/m3 20.89 C 77.09 % 1,002.29 mbar 1.19 m/s 340.67 Deg 0.12 ug/m3
2021-06-09 19:00 2.75 ug/m3 0 ug/m3 9.6 ug/m3 21.59 C 74.7 % 1,002.11 mbar 1.83 m/s 332.98 Deg 0.08 ug/m3
2021-06-09 18:00 2.31 ug/m3 0 ug/m3 11.6 ug/m3 22.61 C 70.44 % 1,001.78 mbar 1.75 m/s 333.95 Deg 0.18 ug/m3
2021-06-09 17:00 2.1 ug/m3 0 ug/m3 11.1 ug/m3 22.95 C 69.47 % 1,001.86 mbar 1.92 m/s 251.02 Deg 0.48 ug/m3
2021-06-09 16:00 3.95 ug/m3 0 ug/m3 10.3 ug/m3 23.98 C 63.76 % 1,001.91 mbar 2.26 m/s 322.85 Deg 0.74 ug/m3
2021-06-09 15:00 5.57 ug/m3 0 ug/m3 10.6 ug/m3 24.22 C 58.51 % 1,002.29 mbar 2.33 m/s 317.15 Deg 1.34 ug/m3
2021-06-09 14:00 3.76 ug/m3 0 ug/m3 9.6 ug/m3 24.06 C 59.34 % 1,002.81 mbar 2.62 m/s 332.53 Deg 1.07 ug/m3
2021-06-09 13:00 3.94 ug/m3 0 ug/m3 9.3 ug/m3 24.35 C 58.24 % 1,003.09 mbar 1.85 m/s 328 Deg 0.92 ug/m3
2021-06-09 12:00 3.93 ug/m3 0 ug/m3 13.1 ug/m3 24.35 C 57.03 % 1,003.20 mbar 1.73 m/s 322.9 Deg 0.75 ug/m3
2021-06-09 11:00 6.41 ug/m3 0 ug/m3 16.2 ug/m3 24.59 C 55.9 % 1,003.07 mbar 1.73 m/s 323.51 Deg 1.42 ug/m3
2021-06-09 10:00 5.08 ug/m3 0 ug/m3 0 ug/m3 23.56 C 58.96 % 1,002.83 mbar 2.14 m/s 349.78 Deg 1.02 ug/m3
2021-06-09 09:00 4.55 ug/m3 89.62 ug/m3 0 ug/m3 22.49 C 67.37 % 1,002.75 mbar 2.36 m/s 257.17 Deg 0.8 ug/m3
2021-06-09 08:00 6.56 ug/m3 85.33 ug/m3 9.3 ug/m3 21.5 C 74.92 % 1,002.96 mbar 1.83 m/s 325.59 Deg 1.26 ug/m3
2021-06-09 07:00 5.62 ug/m3 82.43 ug/m3 9.7 ug/m3 20.57 C 82.63 % 1,003.13 mbar 1.7 m/s 327.45 Deg 0.53 ug/m3
2021-06-09 06:00 6.84 ug/m3 69.77 ug/m3 8.1 ug/m3 19.73 C 88.11 % 1,002.70 mbar 0.98 m/s 324.81 Deg 0.28 ug/m3
2021-06-09 05:00 3.36 ug/m3 68.72 ug/m3 10.1 ug/m3 19.28 C 88.12 % 1,002.39 mbar 0.81 m/s 330.84 Deg 0.07 ug/m3
2021-06-09 04:00 2.17 ug/m3 71.98 ug/m3 8.5 ug/m3 19.43 C 86.37 % 1,002.32 mbar 0.73 m/s 339.19 Deg -0.01 ug/m3
2021-06-09 03:00 3.25 ug/m3 70.57 ug/m3 9.5 ug/m3 19.74 C 84.37 % 1,002.38 mbar 1.07 m/s 332.62 Deg -0.04 ug/m3
2021-06-09 02:00 2.84 ug/m3 75.31 ug/m3 5.6 ug/m3 19.86 C 82.31 % 1,002.46 mbar 0.85 m/s 323.04 Deg -0.03 ug/m3
2021-06-09 01:00 2.28 ug/m3 78.23 ug/m3 6.3 ug/m3 19.89 C 81.93 % 1,002.71 mbar 1.02 m/s 328.23 Deg 0.03 ug/m3
2021-06-09 00:00 4.82 ug/m3 78.47 ug/m3 7.7 ug/m3 20.1 C 80.9 % 1,003.06 mbar 1.93 m/s 339.1 Deg 0.09 ug/m3
2021-06-08 23:00 4.02 ug/m3 78.85 ug/m3 8.4 ug/m3 20.34 C 80.59 % 1,003.47 mbar 2.07 m/s 326.97 Deg -0.03 ug/m3
2021-06-08 22:00 2.02 ug/m3 80.51 ug/m3 8.5 ug/m3 20.71 C 77.91 % 1,003.46 mbar 1.55 m/s 338.85 Deg 0.07 ug/m3
2021-06-08 21:00 1.91 ug/m3 87.98 ug/m3 8.3 ug/m3 20.76 C 78.88 % 1,003.28 mbar 1.77 m/s 329.75 Deg 0 ug/m3
2021-06-08 20:00 2.27 ug/m3 89.51 ug/m3 9.5 ug/m3 21.08 C 78.27 % 1,002.91 mbar 1.74 m/s 323.28 Deg 0.08 ug/m3
2021-06-08 19:00 2.5 ug/m3 91.89 ug/m3 9.9 ug/m3 22.15 C 69.97 % 1,002.97 mbar 1.49 m/s 318.98 Deg 0.04 ug/m3
2021-06-08 18:00 2.39 ug/m3 94.28 ug/m3 10.5 ug/m3 22.75 C 69.05 % 1,002.76 mbar 1.77 m/s 322.18 Deg 0.23 ug/m3
2021-06-08 17:00 2.65 ug/m3 100.97 ug/m3 7.8 ug/m3 23.08 C 67.35 % 1,002.85 mbar 2.07 m/s 335.77 Deg 0.32 ug/m3
2021-06-08 16:00 2.76 ug/m3 94.24 ug/m3 11.2 ug/m3 23.78 C 62.13 % 1,002.76 mbar 1.96 m/s 321.71 Deg 0.45 ug/m3
2021-06-08 15:00 2.42 ug/m3 92.88 ug/m3 12.9 ug/m3 24.21 C 56.6 % 1,003.06 mbar 2.3 m/s 322.73 Deg 0.52 ug/m3
2021-06-08 14:00 3.23 ug/m3 98.67 ug/m3 17 ug/m3 24.19 C 60.49 % 1,003.58 mbar 2.21 m/s 330.39 Deg 0.52 ug/m3
2021-06-08 13:00 3.12 ug/m3 95.42 ug/m3 16.2 ug/m3 24.52 C 61.21 % 1,003.99 mbar 1.95 m/s 310.57 Deg 0.52 ug/m3
2021-06-08 12:00 4.02 ug/m3 95.9 ug/m3 13.3 ug/m3 25.07 C 59.47 % 1,004.22 mbar 1.97 m/s 333.81 Deg 0.4 ug/m3
2021-06-08 11:00 4.25 ug/m3 92.64 ug/m3 10.8 ug/m3 24.86 C 58.14 % 1,004.31 mbar 2.08 m/s 330.58 Deg 0.64 ug/m3
2021-06-08 10:00 5.62 ug/m3 86.72 ug/m3 12 ug/m3 24.57 C 58.78 % 1,004.25 mbar 1.66 m/s 245.43 Deg 0.92 ug/m3
2021-06-08 09:00 5 ug/m3 83.63 ug/m3 12.5 ug/m3 23.77 C 65.19 % 1,004.26 mbar 1.47 m/s 324.98 Deg 0.78 ug/m3
2021-06-08 08:00 11.07 ug/m3 77.53 ug/m3 7 ug/m3 22.95 C 68.89 % 1,004.39 mbar 1.04 m/s 321.83 Deg 2.93 ug/m3
2021-06-08 07:00 11.84 ug/m3 69.16 ug/m3 8.4 ug/m3 21.48 C 78.07 % 1,004.29 mbar 1.16 m/s 331.95 Deg 1.38 ug/m3
2021-06-08 06:00 11.95 ug/m3 61.02 ug/m3 9.3 ug/m3 19.71 C 89.57 % 1,003.92 mbar 1.18 m/s 326.39 Deg 0.52 ug/m3
2021-06-08 05:00 5.14 ug/m3 61.82 ug/m3 8.7 ug/m3 19.33 C 91.47 % 1,003.80 mbar 0.84 m/s 173.83 Deg 0 ug/m3
2021-06-08 04:00 5.07 ug/m3 64.71 ug/m3 10.7 ug/m3 19.73 C 88.91 % 1,003.31 mbar 1.52 m/s 341.32 Deg 0 ug/m3
2021-06-08 03:00 5.02 ug/m3 64.84 ug/m3 9.7 ug/m3 19.98 C 86.61 % 1,003.29 mbar 1.18 m/s 349.48 Deg 0.21 ug/m3
2021-06-08 02:00 2.06 ug/m3 71.14 ug/m3 10 ug/m3 20.24 C 85.29 % 1,003.25 mbar 1.91 m/s 345.72 Deg -0 ug/m3
2021-06-08 01:00 3.64 ug/m3 72.11 ug/m3 9.5 ug/m3 20.49 C 84.64 % 1,003.46 mbar 1.79 m/s 343.02 Deg 0.04 ug/m3
2021-06-08 00:00 2.06 ug/m3 75.85 ug/m3 9.3 ug/m3 20.53 C 86.78 % 1,003.84 mbar 1.8 m/s 341.55 Deg -0.15 ug/m3
2021-06-07 23:00 1.64 ug/m3 80.82 ug/m3 9.8 ug/m3 20.68 C 88.62 % 1,003.82 mbar 1.87 m/s 328.5 Deg 0.19 ug/m3
2021-06-07 22:00 2.18 ug/m3 83.03 ug/m3 7.3 ug/m3 20.82 C 87.51 % 1,003.62 mbar 1.68 m/s 331.52 Deg 0.09 ug/m3
2021-06-07 21:00 1.59 ug/m3 85.68 ug/m3 8.1 ug/m3 20.98 C 85.8 % 1,003.40 mbar 1.82 m/s 315.92 Deg 0.07 ug/m3
2021-06-07 20:00 2.74 ug/m3 82.56 ug/m3 11.4 ug/m3 21.35 C 82.99 % 1,002.79 mbar 1.53 m/s 329.12 Deg -0.06 ug/m3
2021-06-07 19:00 1.14 ug/m3 85.37 ug/m3 13.4 ug/m3 22.12 C 79.26 % 1,002.36 mbar 1.84 m/s 327.22 Deg 0.22 ug/m3
2021-06-07 18:00 1.46 ug/m3 89.98 ug/m3 14.7 ug/m3 23.5 C 73.3 % 1,001.92 mbar 1.9 m/s 337.27 Deg 0.14 ug/m3
2021-06-07 17:00 1.44 ug/m3 93.4 ug/m3 15.9 ug/m3 24.55 C 68.47 % 1,001.72 mbar 2.11 m/s 327.28 Deg -0.01 ug/m3
2021-06-07 16:00 1.89 ug/m3 95.43 ug/m3 12.1 ug/m3 25.24 C 62.91 % 1,002.04 mbar 1.84 m/s 320.2 Deg 0.18 ug/m3
2021-06-07 15:00 2.57 ug/m3 101.69 ug/m3 9.7 ug/m3 25.36 C 60.13 % 1,002.59 mbar 2.28 m/s 341.96 Deg 0.38 ug/m3
2021-06-07 14:00 3.57 ug/m3 115.69 ug/m3 11.5 ug/m3 24.63 C 62.79 % 1,002.90 mbar 3.15 m/s 19.92 Deg 0.3 ug/m3
2021-06-07 13:00 4.38 ug/m3 103.25 ug/m3 16.3 ug/m3 24.24 C 69.3 % 1,003.31 mbar 2.77 m/s 17.22 Deg 0.5 ug/m3
2021-06-07 12:00 3.2 ug/m3 100.15 ug/m3 0 ug/m3 26.36 C 55.44 % 1,003.29 mbar 1.9 m/s 341.88 Deg 0.2 ug/m3
2021-06-07 11:00 4.54 ug/m3 98.41 ug/m3 0 ug/m3 26.77 C 52.56 % 1,003.46 mbar 1.98 m/s 220.18 Deg 0.78 ug/m3
2021-06-07 10:00 -0.7 ug/m3 -79.82 ug/m3 0 ug/m3 26.07 C 53.66 % 1,003.70 mbar 1.68 m/s 249.07 Deg 5.62 ug/m3
2021-06-07 09:00 -2.04 ug/m3 18.1 ug/m3 1.93 ug/m3 25.2 C 56.75 % 1,003.61 mbar 1.83 m/s 184.62 Deg -8.25 ug/m3
2021-06-07 08:00 -1.59 ug/m3 8.9 ug/m3 3.9 ug/m3 23.32 C 74.18 % 1,003.30 mbar 1.79 m/s 165.35 Deg -0.26 ug/m3
2021-06-07 07:00 16.77 ug/m3 16.13 ug/m3 16.08 ug/m3 21.31 C 93.29 % 1,003.45 mbar 1.22 m/s 164.82 Deg 3.85 ug/m3
2021-06-07 06:00 41.99 ug/m3 18.61 ug/m3 15.7 ug/m3 19.89 C 95.46 % 1,003.44 mbar 0.58 m/s 209.73 Deg 6.21 ug/m3
2021-06-07 05:00 23.77 ug/m3 28.42 ug/m3 12.88 ug/m3 19.45 C 93.72 % 1,003.69 mbar 0.51 m/s 245.73 Deg 0.93 ug/m3
2021-06-07 04:00 8.11 ug/m3 48.24 ug/m3 11.13 ug/m3 19.65 C 92.69 % 1,003.66 mbar 0.34 m/s 266.3 Deg 0.04 ug/m3
2021-06-07 03:00 5.92 ug/m3 53.24 ug/m3 11.75 ug/m3 19.95 C 92.26 % 1,003.71 mbar 0.39 m/s 220.94 Deg -0.02 ug/m3
2021-06-07 02:00 10.99 ug/m3 60.72 ug/m3 12.55 ug/m3 20.16 C 90.39 % 1,003.35 mbar 0.82 m/s 211.14 Deg 0.05 ug/m3
2021-06-07 01:00 21.49 ug/m3 52.75 ug/m3 12.48 ug/m3 20.48 C 87.73 % 1,003.68 mbar 1.14 m/s 158.92 Deg -0.01 ug/m3
2021-06-07 00:00 31.34 ug/m3 45.7 ug/m3 19.98 ug/m3 20.86 C 83.98 % 1,004.54 mbar 1.01 m/s 166.18 Deg 0.07 ug/m3
2021-06-06 23:00 32.97 ug/m3 46.82 ug/m3 29.93 ug/m3 21.2 C 78.63 % 1,005.04 mbar 1.19 m/s 154.13 Deg 0.14 ug/m3
2021-06-06 22:00 11.76 ug/m3 73.54 ug/m3 15.3 ug/m3 21.58 C 73.14 % 1,005.36 mbar 1.18 m/s 155.85 Deg 0.1 ug/m3
2021-06-06 21:00 6.56 ug/m3 84.78 ug/m3 10.35 ug/m3 21.98 C 66.94 % 1,004.70 mbar 1.5 m/s 169.29 Deg 0.1 ug/m3
2021-06-06 20:00 4.25 ug/m3 88.43 ug/m3 9.48 ug/m3 22.08 C 67.59 % 1,004.36 mbar 1.99 m/s 185.37 Deg 0.35 ug/m3
2021-06-06 19:00 2.85 ug/m3 92.01 ug/m3 9.55 ug/m3 22.53 C 67.92 % 1,004.35 mbar 2.73 m/s 194.2 Deg 0.26 ug/m3
2021-06-06 18:00 2.06 ug/m3 90.72 ug/m3 10 ug/m3 23.2 C 63.44 % 1,004.21 mbar 3.84 m/s 206.72 Deg 0.3 ug/m3
2021-06-06 17:00 1.84 ug/m3 89.24 ug/m3 8.38 ug/m3 24.24 C 56.59 % 1,004.38 mbar 3.47 m/s 206.15 Deg 0.35 ug/m3
2021-06-06 16:00 1.42 ug/m3 91.57 ug/m3 10.43 ug/m3 24.41 C 54.73 % 1,004.96 mbar 3.56 m/s 192.77 Deg 0.18 ug/m3
2021-06-06 15:00 1.05 ug/m3 98.82 ug/m3 10.25 ug/m3 24.67 C 49.15 % 1,005.60 mbar 3.64 m/s 192.43 Deg 0.29 ug/m3
2021-06-06 14:00 1.05 ug/m3 102.24 ug/m3 2.18 ug/m3 25.68 C 37.34 % 1,005.80 mbar 3.55 m/s 192.07 Deg 0.19 ug/m3
2021-06-06 13:00 2.13 ug/m3 101.28 ug/m3 6.13 ug/m3 26.46 C 31.12 % 1,006.56 mbar 3.29 m/s 195.5 Deg 0.28 ug/m3
2021-06-06 12:00 3.57 ug/m3 99.76 ug/m3 6.2 ug/m3 25.95 C 33.18 % 1,006.94 mbar 3.06 m/s 180.7 Deg 0.45 ug/m3
2021-06-06 11:00 3.12 ug/m3 102.13 ug/m3 10.68 ug/m3 26.43 C 34.84 % 1,007.39 mbar 2.32 m/s 192.28 Deg 0.49 ug/m3
2021-06-06 10:00 3.11 ug/m3 101.03 ug/m3 14.8 ug/m3 24.96 C 44.62 % 1,006.74 mbar 2.84 m/s 184.05 Deg 0.62 ug/m3
2021-06-06 09:00 3.53 ug/m3 104.39 ug/m3 17.63 ug/m3 24.11 C 44.38 % 1,006.78 mbar 2.94 m/s 194.87 Deg 0.52 ug/m3
2021-06-06 08:00 15.68 ug/m3 93.44 ug/m3 23.18 ug/m3 23.55 C 44.27 % 1,007.13 mbar 1.89 m/s 202.67 Deg 2.02 ug/m3
2021-06-06 07:00 33.13 ug/m3 60.4 ug/m3 21.35 ug/m3 21.67 C 65.38 % 1,007.26 mbar 0.7 m/s 182.69 Deg 3.88 ug/m3
2021-06-06 06:00 30.67 ug/m3 56.49 ug/m3 19.3 ug/m3 19.86 C 64.84 % 1,006.76 mbar 0.24 m/s 249.05 Deg 0.9 ug/m3
2021-06-06 05:00 26.77 ug/m3 53.79 ug/m3 19.45 ug/m3 18.81 C 58.88 % 1,006.51 mbar 0.6 m/s 245.63 Deg 0.19 ug/m3
2021-06-06 04:00 30.89 ug/m3 46.81 ug/m3 18.33 ug/m3 18.85 C 57.07 % 1,006.50 mbar 0.38 m/s 252.43 Deg 0.06 ug/m3
2021-06-06 03:00 28.46 ug/m3 48.91 ug/m3 20.3 ug/m3 19.2 C 52.83 % 1,007.07 mbar 0.42 m/s 259.76 Deg 0.05 ug/m3
2021-06-06 02:00 28.86 ug/m3 52.59 ug/m3 23.5 ug/m3 19.73 C 42.94 % 1,007.76 mbar 0.39 m/s 272.66 Deg 0.08 ug/m3
2021-06-06 01:00 33.74 ug/m3 41.03 ug/m3 18.15 ug/m3 20.52 C 40.96 % 1,008.21 mbar 0.33 m/s 278.67 Deg 0.23 ug/m3
2021-06-06 00:00 26.08 ug/m3 66.26 ug/m3 18.5 ug/m3 21 C 37.39 % 1,008.45 mbar 0.34 m/s 252.44 Deg 0.18 ug/m3
2021-06-05 23:00 20.93 ug/m3 73.59 ug/m3 14.58 ug/m3 21.15 C 39.35 % 1,008.88 mbar 0.34 m/s 242.49 Deg 0.08 ug/m3
2021-06-05 22:00 11.85 ug/m3 86.14 ug/m3 16.3 ug/m3 21.73 C 46.45 % 1,009.31 mbar 0.62 m/s 229.05 Deg -0.06 ug/m3
2021-06-05 21:00 12.89 ug/m3 96.23 ug/m3 15.68 ug/m3 22.59 C 35.49 % 1,008.96 mbar 0.54 m/s 267.22 Deg 0.05 ug/m3
2021-06-05 20:00 16.74 ug/m3 95.06 ug/m3 11.95 ug/m3 23.42 C 37.16 % 1,008.62 mbar 0.57 m/s 270.14 Deg -0 ug/m3
2021-06-05 19:00 6.87 ug/m3 114.65 ug/m3 10.08 ug/m3 24.43 C 31.98 % 1,008.54 mbar 0.86 m/s 236.27 Deg 0.41 ug/m3
2021-06-05 18:00 3.02 ug/m3 119.01 ug/m3 10.63 ug/m3 25.46 C 30.96 % 1,008.19 mbar 1.47 m/s 248.99 Deg 0.19 ug/m3
2021-06-05 17:00 3.19 ug/m3 117.2 ug/m3 7.23 ug/m3 26.11 C 30.89 % 1,008.31 mbar 1.89 m/s 238.48 Deg 0.47 ug/m3
2021-06-05 16:00 3.45 ug/m3 115.5 ug/m3 10.28 ug/m3 26.87 C 26.7 % 1,008.71 mbar 2.36 m/s 219.47 Deg 0.35 ug/m3
2021-06-05 15:00 3.36 ug/m3 118.82 ug/m3 13.58 ug/m3 27.76 C 24.82 % 1,008.97 mbar 1.85 m/s 212.55 Deg 0.38 ug/m3
2021-06-05 14:00 4.78 ug/m3 124.95 ug/m3 13.08 ug/m3 27.64 C 26.46 % 1,009.44 mbar 2.01 m/s 198.6 Deg 0.51 ug/m3
2021-06-05 13:00 9.66 ug/m3 119.59 ug/m3 13.98 ug/m3 27.79 C 28.3 % 1,009.76 mbar 2.11 m/s 200.55 Deg 1.28 ug/m3
2021-06-05 12:00 7.48 ug/m3 120.62 ug/m3 13.35 ug/m3 28.55 C 25.52 % 1,010.32 mbar 1.43 m/s 233.15 Deg 1.05 ug/m3
2021-06-05 11:00 9.33 ug/m3 115.37 ug/m3 15.48 ug/m3 27.7 C 26.47 % 1,010.80 mbar 1.26 m/s 231.4 Deg 0.91 ug/m3
2021-06-05 10:00 10.73 ug/m3 112.92 ug/m3 15.4 ug/m3 27.28 C 25.91 % 1,010.66 mbar 1.01 m/s 234.99 Deg 1.15 ug/m3
2021-06-05 09:00 16.42 ug/m3 103.77 ug/m3 15.85 ug/m3 25.9 C 28.86 % 1,010.88 mbar 0.76 m/s 175.38 Deg 1.91 ug/m3
2021-06-05 08:00 24.46 ug/m3 85.5 ug/m3 21.73 ug/m3 23.54 C 45.33 % 1,011.18 mbar 0.59 m/s 13.76 Deg 3.2 ug/m3
2021-06-05 07:00 57.97 ug/m3 40.76 ug/m3 31.1 ug/m3 20.37 C 75.5 % 1,011.10 mbar 0.37 m/s 244.88 Deg 11.79 ug/m3
2021-06-05 06:00 56.65 ug/m3 12.78 ug/m3 23.55 ug/m3 18.8 C 89.6 % 1,010.85 mbar 0.39 m/s 296.27 Deg 22.54 ug/m3
2021-06-05 05:00 14.98 ug/m3 45.49 ug/m3 13.9 ug/m3 19.09 C 88.49 % 1,010.88 mbar 0.29 m/s 291.01 Deg 0.26 ug/m3
2021-06-05 04:00 7.14 ug/m3 62.04 ug/m3 11.65 ug/m3 19.08 C 85.61 % 1,010.73 mbar 0.39 m/s 329.38 Deg 0.04 ug/m3
2021-06-05 03:00 5.95 ug/m3 79 ug/m3 11.53 ug/m3 19.79 C 75.99 % 1,010.83 mbar 0.61 m/s 337.7 Deg -0.09 ug/m3
2021-06-05 02:00 11.51 ug/m3 64.69 ug/m3 11.5 ug/m3 19.74 C 66.03 % 1,010.72 mbar 0.47 m/s 324.53 Deg 0.04 ug/m3
2021-06-05 01:00 21.17 ug/m3 51.79 ug/m3 13.53 ug/m3 19.79 C 51.28 % 1,011.06 mbar 0.3 m/s 297.42 Deg 0.04 ug/m3
2021-06-05 00:00 33.55 ug/m3 41.07 ug/m3 13.6 ug/m3 20.12 C 50.29 % 1,011.67 mbar 0.28 m/s 275.57 Deg 1.57 ug/m3
2021-06-04 23:00 18.81 ug/m3 63.23 ug/m3 14.83 ug/m3 20.77 C 58.29 % 1,012.12 mbar 0.35 m/s 290.11 Deg 0.07 ug/m3
2021-06-04 22:00 18.17 ug/m3 67.41 ug/m3 12.9 ug/m3 20.96 C 61.96 % 1,011.75 mbar 0.51 m/s 299.39 Deg -0.05 ug/m3
2021-06-04 21:00 22.26 ug/m3 75.95 ug/m3 8.13 ug/m3 21.5 C 57.01 % 1,011.13 mbar 0.76 m/s 203.38 Deg 1.86 ug/m3
2021-06-04 20:00 9.47 ug/m3 91.35 ug/m3 9.43 ug/m3 21.98 C 53.05 % 1,010.94 mbar 1.02 m/s 202.5 Deg 0.41 ug/m3
2021-06-04 19:00 6.16 ug/m3 97.47 ug/m3 7 ug/m3 22.81 C 48.52 % 1,010.58 mbar 1.74 m/s 209.28 Deg 0.59 ug/m3
2021-06-04 18:00 6.1 ug/m3 98.51 ug/m3 8.3 ug/m3 23.67 C 46.41 % 1,010.46 mbar 2.33 m/s 193.92 Deg 1.01 ug/m3
2021-06-04 17:00 5.96 ug/m3 104.03 ug/m3 10.98 ug/m3 24.44 C 40.54 % 1,010.65 mbar 2.66 m/s 210.55 Deg 0.78 ug/m3
2021-06-04 16:00 12.42 ug/m3 101.54 ug/m3 13.33 ug/m3 25.38 C 34.14 % 1,011.06 mbar 2.8 m/s 190.85 Deg 2.49 ug/m3
2021-06-04 15:00 23.54 ug/m3 97.2 ug/m3 21.03 ug/m3 26.33 C 28.75 % 1,011.22 mbar 2.75 m/s 173.92 Deg 5.1 ug/m3
2021-06-04 14:00 17.85 ug/m3 99.11 ug/m3 22.65 ug/m3 26.3 C 28.03 % 1,011.19 mbar 2.94 m/s 163 Deg 4.09 ug/m3
2021-06-04 13:00 17.67 ug/m3 99.42 ug/m3 15.65 ug/m3 26.3 C 31.61 % 1,011.37 mbar 2.8 m/s 162.92 Deg 4.24 ug/m3
2021-06-04 12:00 16.62 ug/m3 102.03 ug/m3 20.75 ug/m3 25.76 C 31.19 % 1,011.62 mbar 2.88 m/s 148.68 Deg 3.75 ug/m3
2021-06-04 11:00 23.56 ug/m3 95.47 ug/m3 23.88 ug/m3 25.24 C 34.65 % 1,011.56 mbar 3.15 m/s 162.63 Deg 5.5 ug/m3
2021-06-04 10:00 26.17 ug/m3 82.16 ug/m3 24.78 ug/m3 24.46 C 48.01 % 1,011.39 mbar 2.61 m/s 164.38 Deg 7.01 ug/m3
2021-06-04 09:00 30.39 ug/m3 71.19 ug/m3 17.65 ug/m3 23.06 C 64.45 % 1,011.06 mbar 2.42 m/s 144.75 Deg 7.88 ug/m3
2021-06-04 08:00 44.4 ug/m3 53.37 ug/m3 23.68 ug/m3 22.03 C 75.67 % 1,011.10 mbar 1.79 m/s 142.12 Deg 12.15 ug/m3
2021-06-04 07:00 66.11 ug/m3 27.13 ug/m3 25.23 ug/m3 20.62 C 86.33 % 1,010.91 mbar 1.12 m/s 163.32 Deg 32.72 ug/m3
2021-06-04 06:00 52.98 ug/m3 17.34 ug/m3 22.03 ug/m3 19.07 C 89.98 % 1,010.85 mbar 0.28 m/s 232.26 Deg 17.26 ug/m3
2021-06-04 05:00 39.63 ug/m3 26.32 ug/m3 19.23 ug/m3 18.88 C 88.98 % 1,010.42 mbar 0.23 m/s 204.63 Deg 1.38 ug/m3
2021-06-04 04:00 22.09 ug/m3 52.79 ug/m3 14.78 ug/m3 19.11 C 87.45 % 1,010.48 mbar 0.28 m/s 237.95 Deg 0.08 ug/m3
2021-06-04 03:00 15.35 ug/m3 85.57 ug/m3 11.4 ug/m3 19.83 C 86.39 % 1,010.28 mbar 0.83 m/s 152.8 Deg -0.03 ug/m3
2021-06-04 02:00 22.58 ug/m3 81.26 ug/m3 9.28 ug/m3 20.03 C 86.23 % 1,010.44 mbar 1.26 m/s 163.05 Deg -0.07 ug/m3
2021-06-04 01:00 6.26 ug/m3 91.64 ug/m3 9.7 ug/m3 20.2 C 85.08 % 1,010.68 mbar 1.16 m/s 139.9 Deg 0.08 ug/m3
2021-06-04 00:00 3.8 ug/m3 96.51 ug/m3 7.98 ug/m3 20.39 C 82.73 % 1,010.91 mbar 1.2 m/s 161.52 Deg -0.03 ug/m3
2021-06-03 23:00 5.15 ug/m3 97.53 ug/m3 7.75 ug/m3 20.55 C 81.86 % 1,010.74 mbar 1.76 m/s 151.32 Deg -0.06 ug/m3
2021-06-03 22:00 4.8 ug/m3 96.27 ug/m3 7.15 ug/m3 20.57 C 81.07 % 1,010.87 mbar 1.53 m/s 156.72 Deg 0.01 ug/m3
2021-06-03 21:00 7.78 ug/m3 97.23 ug/m3 7.73 ug/m3 20.82 C 78.14 % 1,010.31 mbar 2.14 m/s 154.37 Deg 0.19 ug/m3
2021-06-03 20:00 10.81 ug/m3 95.62 ug/m3 7.85 ug/m3 21.16 C 73.22 % 1,009.65 mbar 2.77 m/s 150.2 Deg 0.31 ug/m3
2021-06-03 19:00 13.59 ug/m3 97.87 ug/m3 8.4 ug/m3 21.9 C 64.01 % 1,009.18 mbar 3.01 m/s 159.22 Deg 0.83 ug/m3
2021-06-03 18:00 10.23 ug/m3 102.13 ug/m3 10.18 ug/m3 22.73 C 53.61 % 1,008.87 mbar 3.44 m/s 156.93 Deg 1.18 ug/m3
2021-06-03 17:00 10.73 ug/m3 103.83 ug/m3 16.48 ug/m3 23.34 C 48.89 % 1,008.95 mbar 3.76 m/s 154.13 Deg 1.59 ug/m3
2021-06-03 16:00 13.44 ug/m3 102.49 ug/m3 16.53 ug/m3 23.78 C 45.51 % 1,009.10 mbar 4.45 m/s 164.1 Deg 2.47 ug/m3
2021-06-03 15:00 19.39 ug/m3 98.69 ug/m3 16.2 ug/m3 24.26 C 48.6 % 1,009.39 mbar 3.84 m/s 159.77 Deg 4.28 ug/m3
2021-06-03 14:00 12.61 ug/m3 104.47 ug/m3 15.78 ug/m3 24.19 C 48.35 % 1,009.54 mbar 4.13 m/s 154.47 Deg 2.82 ug/m3
2021-06-03 13:00 9.46 ug/m3 109.86 ug/m3 12.68 ug/m3 23.99 C 42.02 % 1,009.91 mbar 4.37 m/s 132.82 Deg 2.11 ug/m3
2021-06-03 12:00 13.18 ug/m3 106.03 ug/m3 13.28 ug/m3 23.89 C 43.07 % 1,010.13 mbar 3.94 m/s 143.4 Deg 2.41 ug/m3
2021-06-03 11:00 18.48 ug/m3 100.61 ug/m3 10.88 ug/m3 23.54 C 50.35 % 1,009.84 mbar 3.64 m/s 161.92 Deg 3.91 ug/m3
2021-06-03 10:00 19.85 ug/m3 95.59 ug/m3 10.88 ug/m3 22.8 C 60.79 % 1,009.45 mbar 3.54 m/s 131.38 Deg 4.18 ug/m3
2021-06-03 09:00 15.08 ug/m3 98.69 ug/m3 11.88 ug/m3 22.41 C 62.16 % 1,009.47 mbar 3.33 m/s 147.15 Deg 2.95 ug/m3
2021-06-03 08:00 22.81 ug/m3 90.31 ug/m3 8.73 ug/m3 21.68 C 69.66 % 1,009.10 mbar 2.97 m/s 144.45 Deg 3.98 ug/m3
2021-06-03 07:00 19.06 ug/m3 93.77 ug/m3 8.8 ug/m3 20.72 C 75.48 % 1,008.61 mbar 3.05 m/s 149.67 Deg 1.9 ug/m3
2021-06-03 06:00 38.86 ug/m3 71.83 ug/m3 10.48 ug/m3 19.99 C 79.65 % 1,008.54 mbar 2.16 m/s 154.88 Deg 2.08 ug/m3
2021-06-03 05:00 33.97 ug/m3 68.09 ug/m3 9.48 ug/m3 19.5 C 82.4 % 1,008.42 mbar 1.62 m/s 139.15 Deg 0.17 ug/m3
2021-06-03 04:00 24.37 ug/m3 82.22 ug/m3 9.98 ug/m3 19.57 C 83.28 % 1,008.12 mbar 1.91 m/s 140.2 Deg -0 ug/m3
2021-06-03 03:00 27.44 ug/m3 76.76 ug/m3 8.65 ug/m3 19.64 C 85.05 % 1,007.97 mbar 2.05 m/s 144.05 Deg 0.17 ug/m3
2021-06-03 02:00 21.33 ug/m3 81.75 ug/m3 8.25 ug/m3 19.83 C 85.31 % 1,008.00 mbar 1.92 m/s 145.02 Deg 0.04 ug/m3
2021-06-03 01:00 7.88 ug/m3 94.69 ug/m3 7.63 ug/m3 19.92 C 85.3 % 1,007.87 mbar 1.92 m/s 143.1 Deg -0 ug/m3
2021-06-03 00:00 5.84 ug/m3 100.2 ug/m3 7.03 ug/m3 20.09 C 85.01 % 1,007.91 mbar 2.32 m/s 137.15 Deg -0.1 ug/m3
2021-06-02 23:00 5.2 ug/m3 100.74 ug/m3 6.98 ug/m3 20.23 C 84.17 % 1,007.43 mbar 2.66 m/s 151.88 Deg 0.07 ug/m3
2021-06-02 22:00 3.25 ug/m3 100.98 ug/m3 7.68 ug/m3 20.3 C 81.87 % 1,007.14 mbar 2.76 m/s 147.27 Deg 0.02 ug/m3
2021-06-02 21:00 4.21 ug/m3 99.07 ug/m3 9.18 ug/m3 20.36 C 79.12 % 1,006.67 mbar 3.17 m/s 152.6 Deg 0.09 ug/m3
2021-06-02 20:00 5.59 ug/m3 97.52 ug/m3 9.08 ug/m3 20.58 C 76.93 % 1,006.38 mbar 3.32 m/s 156.23 Deg 0.33 ug/m3
2021-06-02 19:00 10.2 ug/m3 94.46 ug/m3 9.05 ug/m3 21.04 C 74.22 % 1,006.24 mbar 3.34 m/s 146.82 Deg 0.73 ug/m3
2021-06-02 18:00 10.8 ug/m3 96.03 ug/m3 9.4 ug/m3 21.63 C 70.56 % 1,005.94 mbar 3.74 m/s 142.13 Deg 1.17 ug/m3
2021-06-02 17:00 8.26 ug/m3 97.65 ug/m3 13.93 ug/m3 22.02 C 68.24 % 1,005.96 mbar 3.38 m/s 184.95 Deg 1.33 ug/m3
2021-06-02 16:00 14.43 ug/m3 92.02 ug/m3 18.55 ug/m3 22.94 C 63.68 % 1,005.84 mbar 3.76 m/s 151.72 Deg 2.77 ug/m3
2021-06-02 15:00 14.85 ug/m3 90.93 ug/m3 17.5 ug/m3 22.72 C 64 % 1,005.45 mbar 4.4 m/s 153.12 Deg 3.47 ug/m3
2021-06-02 14:00 17.3 ug/m3 92.29 ug/m3 25.35 ug/m3 22.74 C 58.16 % 1,005.48 mbar 4.45 m/s 155.77 Deg 3.9 ug/m3
2021-06-02 13:00 23.21 ug/m3 87.18 ug/m3 24.53 ug/m3 22.37 C 57.03 % 1,005.30 mbar 4.9 m/s 158.2 Deg 6.44 ug/m3
2021-06-02 12:00 22.56 ug/m3 84.41 ug/m3 15.73 ug/m3 22.35 C 63.51 % 1,005.22 mbar 5.1 m/s 167.18 Deg 6.74 ug/m3
2021-06-02 11:00 28.75 ug/m3 76.66 ug/m3 14.78 ug/m3 21.56 C 79.06 % 1,005.67 mbar 4.27 m/s 166.78 Deg 7.04 ug/m3
2021-06-02 10:00 27.71 ug/m3 75.32 ug/m3 13.8 ug/m3 21.51 C 80.88 % 1,005.49 mbar 3.95 m/s 160.27 Deg 12.41 ug/m3
2021-06-02 09:00 25.17 ug/m3 74.35 ug/m3 15.55 ug/m3 21.04 C 89.27 % 1,005.12 mbar 3.31 m/s 158.58 Deg 4.45 ug/m3
2021-06-02 08:00 42.69 ug/m3 55.24 ug/m3 13.45 ug/m3 20.57 C 91.82 % 1,005.33 mbar 3.08 m/s 166.78 Deg 7.51 ug/m3
2021-06-02 07:00 32.22 ug/m3 61.84 ug/m3 12.35 ug/m3 20.9 C 87.51 % 1,004.74 mbar 3.23 m/s 171.3 Deg 5.59 ug/m3
2021-06-02 06:00 16.84 ug/m3 68.07 ug/m3 11.48 ug/m3 20.7 C 90.75 % 1,004.57 mbar 2.92 m/s 158.12 Deg 1.59 ug/m3
2021-06-02 05:00 5.81 ug/m3 77.07 ug/m3 13.83 ug/m3 20.67 C 91.06 % 1,004.45 mbar 2.31 m/s 159.18 Deg 0.23 ug/m3
2021-06-02 04:00 3.34 ug/m3 71.43 ug/m3 15.15 ug/m3 20.67 C 89.47 % 1,004.05 mbar 1.77 m/s 162.65 Deg -0.02 ug/m3
2021-06-02 03:00 1.68 ug/m3 74.96 ug/m3 15.15 ug/m3 20.68 C 88.35 % 1,004.00 mbar 2.21 m/s 159.95 Deg -0.01 ug/m3
2021-06-02 02:00 2.88 ug/m3 72.94 ug/m3 13.6 ug/m3 20.65 C 87.5 % 1,003.88 mbar 2.05 m/s 152.92 Deg -0.04 ug/m3
2021-06-02 01:00 6.43 ug/m3 71.42 ug/m3 10.85 ug/m3 20.59 C 86.92 % 1,003.16 mbar 2.01 m/s 155.38 Deg 0.02 ug/m3
2021-06-02 00:00 7.77 ug/m3 68.56 ug/m3 9.8 ug/m3 20.55 C 86.14 % 1,003.64 mbar 2.23 m/s 172.03 Deg 0.14 ug/m3
2021-06-01 23:00 6.28 ug/m3 70.14 ug/m3 10.53 ug/m3 20.64 C 85.26 % 1,004.04 mbar 2.25 m/s 167.22 Deg 0.08 ug/m3
2021-06-01 22:00 2.01 ug/m3 74.99 ug/m3 11.7 ug/m3 20.66 C 84.42 % 1,003.95 mbar 2.57 m/s 167.95 Deg -0.04 ug/m3
2021-06-01 21:00 2.73 ug/m3 74.62 ug/m3 11.85 ug/m3 20.93 C 84.1 % 1,004.40 mbar 1.86 m/s 173.03 Deg 0.23 ug/m3
2021-06-01 20:00 3.21 ug/m3 79.87 ug/m3 12.55 ug/m3 21.04 C 81.36 % 1,004.04 mbar 2.02 m/s 182.88 Deg 0.4 ug/m3
2021-06-01 19:00 5.01 ug/m3 83.21 ug/m3 8.6 ug/m3 21.43 C 75.4 % 1,003.40 mbar 2.34 m/s 177.37 Deg 0.62 ug/m3
2021-06-01 18:00 7.16 ug/m3 85.68 ug/m3 12.68 ug/m3 21.99 C 72 % 1,003.27 mbar 2.49 m/s 172.13 Deg 0.87 ug/m3
2021-06-01 17:00 10.53 ug/m3 82.77 ug/m3 15.63 ug/m3 22.25 C 70.21 % 1,003.32 mbar 2.42 m/s 182.52 Deg 1.56 ug/m3
2021-06-01 16:00 14.78 ug/m3 82.62 ug/m3 16.15 ug/m3 22.66 C 68.26 % 1,003.56 mbar 2.46 m/s 176.52 Deg 2.85 ug/m3
2021-06-01 15:00 23.25 ug/m3 78.68 ug/m3 19.73 ug/m3 22.88 C 68.93 % 1,003.80 mbar 2.63 m/s 166.32 Deg 5.11 ug/m3
2021-06-01 14:00 16.57 ug/m3 84.41 ug/m3 20.6 ug/m3 23.42 C 67.17 % 1,003.59 mbar 2.72 m/s 173.53 Deg 3.62 ug/m3
2021-06-01 13:00 18.25 ug/m3 89.77 ug/m3 22.08 ug/m3 23.8 C 64.48 % 1,003.71 mbar 2.38 m/s 176.98 Deg 4.41 ug/m3
2021-06-01 12:00 17.79 ug/m3 92.13 ug/m3 20.13 ug/m3 23.45 C 63.78 % 1,004.32 mbar 2.1 m/s 168.08 Deg 3.27 ug/m3
2021-06-01 11:00 18.69 ug/m3 88.37 ug/m3 17.28 ug/m3 22.61 C 68.25 % 1,004.97 mbar 1.64 m/s 178.15 Deg 3.29 ug/m3
2021-06-01 10:00 21.58 ug/m3 81.01 ug/m3 16.45 ug/m3 22.01 C 70.51 % 1,004.76 mbar 1.62 m/s 184.83 Deg 3.52 ug/m3
2021-06-01 09:00 12.5 ug/m3 90.95 ug/m3 15.2 ug/m3 21.82 C 72.04 % 1,004.42 mbar 1.98 m/s 180.52 Deg 2.22 ug/m3
2021-06-01 08:00 10.55 ug/m3 88.13 ug/m3 15.48 ug/m3 21.48 C 75.61 % 1,004.18 mbar 1.75 m/s 271.88 Deg 1.83 ug/m3
2021-06-01 07:00 11.67 ug/m3 87.6 ug/m3 21.18 ug/m3 20.61 C 81.77 % 1,003.84 mbar 1.7 m/s 306.2 Deg 1.1 ug/m3
2021-06-01 06:00 16.46 ug/m3 76.51 ug/m3 18.2 ug/m3 19.5 C 88.43 % 1,003.66 mbar 1.03 m/s 26.53 Deg 0.44 ug/m3
2021-06-01 05:00 5.2 ug/m3 81.28 ug/m3 15.63 ug/m3 19.03 C 88.33 % 1,003.34 mbar 0.5 m/s 176.53 Deg -0.05 ug/m3
2021-06-01 04:00 4.96 ug/m3 85.25 ug/m3 19.05 ug/m3 18.98 C 87.04 % 1,003.14 mbar 0.44 m/s 329.56 Deg 0.05 ug/m3
2021-06-01 03:00 5.26 ug/m3 84.1 ug/m3 26.38 ug/m3 19.08 C 85.54 % 1,003.12 mbar 0.6 m/s 172.5 Deg 0.09 ug/m3
2021-06-01 02:00 4.38 ug/m3 93.34 ug/m3 19.55 ug/m3 19.4 C 84.33 % 1,003.19 mbar 0.8 m/s 13.8 Deg -0.04 ug/m3
2021-06-01 01:00 4.78 ug/m3 92.23 ug/m3 12.4 ug/m3 19.51 C 82.9 % 1,003.37 mbar 1.12 m/s 21.87 Deg 0.01 ug/m3
2021-06-01 00:00 7.15 ug/m3 88.98 ug/m3 9.43 ug/m3 19.45 C 81.45 % 1,003.65 mbar 0.69 m/s 170.74 Deg -0.05 ug/m3
2021-05-31 23:00 5.07 ug/m3 90.89 ug/m3 10.55 ug/m3 19.56 C 80.14 % 1,003.81 mbar 0.62 m/s 352.5 Deg 0.1 ug/m3
2021-05-31 22:00 3.8 ug/m3 89.17 ug/m3 10.73 ug/m3 19.85 C 79.4 % 1,003.72 mbar 0.94 m/s 338.61 Deg 0.02 ug/m3
2021-05-31 21:00 3.13 ug/m3 90.93 ug/m3 12.48 ug/m3 20.46 C 79.91 % 1,003.32 mbar 0.92 m/s 330.39 Deg 0.08 ug/m3
2021-05-31 20:00 10.53 ug/m3 87.61 ug/m3 10.33 ug/m3 21.42 C 72.69 % 1,002.60 mbar 1.01 m/s 323.75 Deg -0.03 ug/m3
2021-05-31 19:00 5.4 ug/m3 96.2 ug/m3 12.48 ug/m3 22.56 C 61.3 % 1,002.33 mbar 1.04 m/s 318.79 Deg 0.04 ug/m3
2021-05-31 18:00 3.6 ug/m3 100.71 ug/m3 13.95 ug/m3 23.59 C 59.64 % 1,002.34 mbar 1.41 m/s 307.71 Deg 0.38 ug/m3
2021-05-31 17:00 3.93 ug/m3 99.98 ug/m3 14.4 ug/m3 23.56 C 67.06 % 1,002.55 mbar 1.6 m/s 297.42 Deg 0.36 ug/m3
2021-05-31 16:00 3.35 ug/m3 98.69 ug/m3 16.6 ug/m3 24.77 C 63.8 % 1,002.60 mbar 1.61 m/s 294.35 Deg 0.43 ug/m3
2021-05-31 15:00 7.38 ug/m3 98.12 ug/m3 20.6 ug/m3 24.29 C 65.68 % 1,003.03 mbar 1.53 m/s 240.11 Deg 0.97 ug/m3
2021-05-31 14:00 16.81 ug/m3 93.48 ug/m3 16.45 ug/m3 24.87 C 58.64 % 1,002.91 mbar 1.89 m/s 183.43 Deg 3.57 ug/m3
2021-05-31 13:00 10.8 ug/m3 98.92 ug/m3 16.13 ug/m3 24.7 C 58.01 % 1,003.22 mbar 1.78 m/s 239.52 Deg 2.09 ug/m3
2021-05-31 12:00 8.67 ug/m3 97.23 ug/m3 17.95 ug/m3 23.97 C 61.43 % 1,003.51 mbar 1.57 m/s 251.55 Deg 1.55 ug/m3
2021-05-31 11:00 6.57 ug/m3 94.29 ug/m3 17.95 ug/m3 23.61 C 63.04 % 1,003.72 mbar 1.35 m/s 106.28 Deg 1.01 ug/m3
2021-05-31 10:00 5.88 ug/m3 83.84 ug/m3 14.65 ug/m3 22.92 C 67.48 % 1,003.84 mbar 1.51 m/s 93.81 Deg 1.03 ug/m3
2021-05-31 09:00 5.34 ug/m3 79.65 ug/m3 28.9 ug/m3 22.1 C 70.06 % 1,003.82 mbar 1.04 m/s 341.58 Deg 0.83 ug/m3
2021-05-31 08:00 7.53 ug/m3 77.91 ug/m3 19.83 ug/m3 21.08 C 74.65 % 1,003.86 mbar 1.22 m/s 341.16 Deg 1.2 ug/m3
2021-05-31 07:00 12.42 ug/m3 73.33 ug/m3 12.4 ug/m3 19.84 C 81.4 % 1,003.91 mbar 1 m/s 336.79 Deg 0.7 ug/m3
2021-05-31 06:00 8.59 ug/m3 77.49 ug/m3 12.4 ug/m3 19.35 C 84.88 % 1,003.57 mbar 1.01 m/s 321.42 Deg 0.02 ug/m3
2021-05-31 05:00 3.51 ug/m3 83.42 ug/m3 11.43 ug/m3 19.04 C 87.06 % 1,003.30 mbar 0.9 m/s 301.51 Deg -0.02 ug/m3
2021-05-31 04:00 1.75 ug/m3 78.56 ug/m3 9.65 ug/m3 18.84 C 88.71 % 1,003.26 mbar 0.52 m/s 303.29 Deg 0.03 ug/m3
2021-05-31 03:00 1.96 ug/m3 73.87 ug/m3 9.88 ug/m3 18.85 C 89.91 % 1,003.51 mbar 0.61 m/s 320.7 Deg 0.03 ug/m3
2021-05-31 02:00 0.83 ug/m3 77.33 ug/m3 8.75 ug/m3 19.08 C 88.6 % 1,003.58 mbar 1 m/s 313.69 Deg -0.03 ug/m3
2021-05-31 01:00 0.89 ug/m3 84.4 ug/m3 6.73 ug/m3 19.27 C 85.81 % 1,003.57 mbar 0.99 m/s 218.4 Deg 0.03 ug/m3
2021-05-31 00:00 1.86 ug/m3 88.73 ug/m3 9.95 ug/m3 19.27 C 84.85 % 1,003.81 mbar 1.13 m/s 275.54 Deg 0.14 ug/m3
2021-05-30 23:00 2.33 ug/m3 94.68 ug/m3 9.78 ug/m3 19.21 C 85.03 % 1,003.87 mbar 0.65 m/s 261 Deg -0.02 ug/m3
2021-05-30 22:00 4.01 ug/m3 91.3 ug/m3 9.75 ug/m3 19.32 C 84.97 % 1,003.76 mbar 0.84 m/s 304.69 Deg 0.03 ug/m3
2021-05-30 21:00 12.63 ug/m3 73.72 ug/m3 10.88 ug/m3 19.75 C 84.11 % 1,003.37 mbar 0.95 m/s 287.7 Deg 0.04 ug/m3
2021-05-30 20:00 7.39 ug/m3 95.23 ug/m3 9.33 ug/m3 20.22 C 79.78 % 1,002.88 mbar 1.04 m/s 331.45 Deg 0.03 ug/m3
2021-05-30 19:00 2.48 ug/m3 100.04 ug/m3 8.85 ug/m3 21.3 C 68.86 % 1,002.52 mbar 1.47 m/s 333.15 Deg 0.02 ug/m3
2021-05-30 18:00 0.94 ug/m3 95.83 ug/m3 11.3 ug/m3 22.66 C 57.26 % 1,002.20 mbar 1.48 m/s 327.92 Deg 0.08 ug/m3
2021-05-30 17:00 1.57 ug/m3 104.38 ug/m3 12.33 ug/m3 24 C 46.44 % 1,002.15 mbar 1.61 m/s 323.95 Deg 0.1 ug/m3
2021-05-30 16:00 0.76 ug/m3 102.72 ug/m3 9.25 ug/m3 25.28 C 40.5 % 1,002.23 mbar 1.5 m/s 317.22 Deg 0.08 ug/m3
2021-05-30 15:00 1.74 ug/m3 107.03 ug/m3 10.15 ug/m3 25.34 C 42.3 % 1,002.43 mbar 1.79 m/s 303.35 Deg 0.27 ug/m3
2021-05-30 14:00 1.05 ug/m3 112.16 ug/m3 9.83 ug/m3 25.38 C 40.05 % 1,002.80 mbar 2.07 m/s 335 Deg 0.17 ug/m3
2021-05-30 13:00 2.4 ug/m3 108.2 ug/m3 8.38 ug/m3 25.74 C 42.6 % 1,002.93 mbar 1.74 m/s 352.02 Deg 0.29 ug/m3
2021-05-30 12:00 1.95 ug/m3 106.04 ug/m3 7.93 ug/m3 26.56 C 33.61 % 1,003.01 mbar 1.62 m/s 327.42 Deg 0.16 ug/m3
2021-05-30 11:00 2.96 ug/m3 108.61 ug/m3 10.83 ug/m3 25.81 C 35.08 % 1,003.00 mbar 1.91 m/s 346.35 Deg 0.3 ug/m3
2021-05-30 10:00 3 ug/m3 106.61 ug/m3 13.75 ug/m3 25.15 C 38.78 % 1,003.08 mbar 1.81 m/s 346.73 Deg 0.27 ug/m3
2021-05-30 09:00 2.84 ug/m3 102.3 ug/m3 13.95 ug/m3 24.26 C 51.4 % 1,003.10 mbar 1.63 m/s 344.52 Deg 0.3 ug/m3
2021-05-30 08:00 2.52 ug/m3 105.69 ug/m3 13.05 ug/m3 22.98 C 55.95 % 1,003.13 mbar 1.76 m/s 347.21 Deg 0.22 ug/m3
2021-05-30 07:00 4.69 ug/m3 103.31 ug/m3 12.05 ug/m3 21.73 C 62.06 % 1,003.09 mbar 1.05 m/s 336.23 Deg 0.23 ug/m3
2021-05-30 06:00 7.67 ug/m3 93.18 ug/m3 11.58 ug/m3 19.52 C 66.16 % 1,003.13 mbar 0.7 m/s 309.33 Deg 0 ug/m3
2021-05-30 05:00 8.13 ug/m3 86.35 ug/m3 12.25 ug/m3 18.49 C 68.91 % 1,003.12 mbar 0.28 m/s 306.56 Deg 0.05 ug/m3
2021-05-30 04:00 7.02 ug/m3 68.87 ug/m3 12.65 ug/m3 18.09 C 69.05 % 1,003.22 mbar 0.26 m/s 297.71 Deg -0.07 ug/m3
2021-05-30 03:00 7.81 ug/m3 77.96 ug/m3 16.68 ug/m3 18.51 C 66.04 % 1,003.26 mbar 0.31 m/s 297.08 Deg 0.05 ug/m3
2021-05-30 02:00 15.47 ug/m3 56.06 ug/m3 19.2 ug/m3 18.32 C 77.9 % 1,003.31 mbar 0.28 m/s 285.22 Deg -0.04 ug/m3
2021-05-30 01:00 18.2 ug/m3 46.2 ug/m3 17.2 ug/m3 19.14 C 85.24 % 1,003.49 mbar 0.32 m/s 296.9 Deg 0.01 ug/m3
2021-05-30 00:00 20.97 ug/m3 41.64 ug/m3 17 ug/m3 19.33 C 85.01 % 1,003.68 mbar 0.21 m/s 304.56 Deg 0.19 ug/m3
2021-05-29 23:00 21 ug/m3 58.02 ug/m3 12.03 ug/m3 19.71 C 83.65 % 1,003.88 mbar 0.36 m/s 284.58 Deg 0.24 ug/m3
2021-05-29 22:00 10.37 ug/m3 89.04 ug/m3 10.98 ug/m3 20.62 C 80.19 % 1,003.88 mbar 0.61 m/s 263.88 Deg 0.03 ug/m3
2021-05-29 21:00 18.56 ug/m3 94.42 ug/m3 11.2 ug/m3 21.1 C 71.2 % 1,003.54 mbar 0.93 m/s 162.56 Deg 0.04 ug/m3
2021-05-29 20:00 30.44 ug/m3 82.17 ug/m3 10.3 ug/m3 21.48 C 70.78 % 1,003.20 mbar 1.06 m/s 155.75 Deg 0.58 ug/m3
2021-05-29 19:00 21.56 ug/m3 88.06 ug/m3 10.3 ug/m3 22.33 C 66.68 % 1,002.95 mbar 1.27 m/s 159.52 Deg 0.73 ug/m3
2021-05-29 18:00 15.2 ug/m3 97.59 ug/m3 10.03 ug/m3 23.04 C 52.24 % 1,002.64 mbar 1.64 m/s 156.65 Deg 1.07 ug/m3
2021-05-29 17:00 11.61 ug/m3 99.19 ug/m3 13.28 ug/m3 22.21 C 62.69 % 1,002.50 mbar 1.94 m/s 179.83 Deg 0.92 ug/m3
2021-05-29 16:00 10.7 ug/m3 102.47 ug/m3 10.88 ug/m3 22.53 C 59.89 % 1,003.07 mbar 2.2 m/s 175.02 Deg 0.54 ug/m3
2021-05-29 15:00 7.31 ug/m3 111.89 ug/m3 12.63 ug/m3 24.21 C 49.6 % 1,002.96 mbar 2.74 m/s 155.82 Deg 0.46 ug/m3
2021-05-29 14:00 6.96 ug/m3 114.41 ug/m3 13.23 ug/m3 25.07 C 49.51 % 1,003.11 mbar 3 m/s 148.57 Deg 1.09 ug/m3
2021-05-29 13:00 10.42 ug/m3 107.74 ug/m3 16.93 ug/m3 24.83 C 55.55 % 1,003.46 mbar 3.03 m/s 172.6 Deg 1.78 ug/m3
2021-05-29 12:00 14.83 ug/m3 99.21 ug/m3 17.75 ug/m3 24.52 C 53.95 % 1,003.58 mbar 3.26 m/s 149.75 Deg 3.3 ug/m3
2021-05-29 11:00 15.65 ug/m3 92.91 ug/m3 14.08 ug/m3 23.33 C 64.98 % 1,003.55 mbar 3.52 m/s 156.68 Deg 3.41 ug/m3
2021-05-29 10:00 9.12 ug/m3 99.18 ug/m3 11.85 ug/m3 22.16 C 75.03 % 1,003.66 mbar 3.07 m/s 179.27 Deg 2.3 ug/m3
2021-05-29 09:00 7.47 ug/m3 100.27 ug/m3 7.98 ug/m3 21.32 C 81.03 % 1,003.52 mbar 3.12 m/s 182.35 Deg 1.6 ug/m3
2021-05-29 08:00 10.25 ug/m3 95.83 ug/m3 10.1 ug/m3 20.53 C 85.52 % 1,002.97 mbar 3.33 m/s 179.17 Deg 1.45 ug/m3
2021-05-29 07:00 8.65 ug/m3 95.28 ug/m3 10.9 ug/m3 20.22 C 85.36 % 1,003.11 mbar 2.43 m/s 162 Deg 0.64 ug/m3
2021-05-29 06:00 9.81 ug/m3 89.47 ug/m3 10.8 ug/m3 19.51 C 89.68 % 1,003.43 mbar 1.73 m/s 241.37 Deg 0.14 ug/m3
2021-05-29 05:00 7.98 ug/m3 91.53 ug/m3 9.15 ug/m3 19.6 C 92.95 % 1,003.59 mbar 2 m/s 172.83 Deg -0.01 ug/m3
2021-05-29 04:00 3.48 ug/m3 95.93 ug/m3 8 ug/m3 19.71 C 93.56 % 1,003.45 mbar 1.59 m/s 230.32 Deg -0.14 ug/m3
2021-05-29 03:00 3.64 ug/m3 95.82 ug/m3 8.48 ug/m3 19.87 C 92.14 % 1,003.56 mbar 1.9 m/s 308.87 Deg -0.06 ug/m3
2021-05-29 02:00 6.28 ug/m3 84.51 ug/m3 9.3 ug/m3 20.09 C 89.35 % 1,003.80 mbar 2.01 m/s 332.6 Deg -0.01 ug/m3
2021-05-29 01:00 8.91 ug/m3 81.57 ug/m3 13.18 ug/m3 20.21 C 86.83 % 1,003.66 mbar 2 m/s 199.58 Deg -0.04 ug/m3
2021-05-29 00:00 9.02 ug/m3 85.07 ug/m3 10.65 ug/m3 20.41 C 84.64 % 1,003.71 mbar 1.68 m/s 205.43 Deg -0.05 ug/m3
2021-05-28 23:00 14.73 ug/m3 76.34 ug/m3 8.95 ug/m3 20.68 C 80.6 % 1,003.55 mbar 1.86 m/s 232.8 Deg -0.04 ug/m3
2021-05-28 22:00 24.64 ug/m3 70.62 ug/m3 5.35 ug/m3 21.02 C 73.96 % 1,003.11 mbar 2.12 m/s 162.55 Deg 0.05 ug/m3
2021-05-28 21:00 9.32 ug/m3 86.48 ug/m3 6.53 ug/m3 20.87 C 77.37 % 1,002.07 mbar 3.27 m/s 145.83 Deg -0.07 ug/m3
2021-05-28 20:00 9.3 ug/m3 88.88 ug/m3 8.88 ug/m3 21.02 C 78.58 % 1,002.12 mbar 2.59 m/s 155.08 Deg 0.5 ug/m3
2021-05-28 19:00 15.98 ug/m3 93.71 ug/m3 12.33 ug/m3 21.67 C 70.73 % 1,002.04 mbar 3.22 m/s 162.37 Deg 0.47 ug/m3
2021-05-28 18:00 18.07 ug/m3 88.9 ug/m3 11.95 ug/m3 22.91 C 55.96 % 1,001.97 mbar 3.34 m/s 152.93 Deg 1.27 ug/m3
2021-05-28 17:00 14.66 ug/m3 96.51 ug/m3 11.43 ug/m3 23.32 C 51.62 % 1,001.98 mbar 3.48 m/s 152.07 Deg 1.55 ug/m3
2021-05-28 16:00 15.44 ug/m3 93.07 ug/m3 12.75 ug/m3 23.78 C 53.27 % 1,002.20 mbar 2.83 m/s 193.18 Deg 2.52 ug/m3
2021-05-28 15:00 11.63 ug/m3 109.14 ug/m3 15.08 ug/m3 24.14 C 50.15 % 1,002.61 mbar 2.61 m/s 197.25 Deg 1.67 ug/m3
2021-05-28 14:00 14.78 ug/m3 109.37 ug/m3 13.83 ug/m3 23.98 C 50.25 % 1,002.65 mbar 3.07 m/s 191.53 Deg 2.32 ug/m3
2021-05-28 13:00 11.27 ug/m3 101.48 ug/m3 11.85 ug/m3 24.89 C 39.32 % 1,002.80 mbar 2.97 m/s 207.02 Deg 2.08 ug/m3
2021-05-28 12:00 15.97 ug/m3 86.34 ug/m3 11.55 ug/m3 24.62 C 44.67 % 1,003.76 mbar 2.21 m/s 192.45 Deg 3.58 ug/m3
2021-05-28 11:00 19.62 ug/m3 76.65 ug/m3 13.85 ug/m3 24.37 C 49.41 % 1,003.78 mbar 1.93 m/s 228.33 Deg 4.83 ug/m3
2021-05-28 10:00 16.45 ug/m3 83.41 ug/m3 26.3 ug/m3 25.13 C 43.89 % 1,003.35 mbar 1.94 m/s 239.53 Deg 3.33 ug/m3
2021-05-28 09:00 40.69 ug/m3 62.81 ug/m3 30.13 ug/m3 25.26 C 36.01 % 1,003.53 mbar 1.05 m/s 298.85 Deg 8.97 ug/m3
2021-05-28 08:00 58.19 ug/m3 40.76 ug/m3 35.43 ug/m3 23.55 C 38.51 % 1,003.40 mbar 0.65 m/s 288.77 Deg 17.06 ug/m3
2021-05-28 07:00 74.63 ug/m3 16.37 ug/m3 26.85 ug/m3 21.63 C 44.58 % 1,002.97 mbar 0.53 m/s 225.93 Deg 26.44 ug/m3
2021-05-28 06:00 65.2 ug/m3 19.88 ug/m3 13.65 ug/m3 20.78 C 46.75 % 1,002.43 mbar 0.37 m/s 273.41 Deg 23.62 ug/m3
2021-05-28 05:00 17.76 ug/m3 59.95 ug/m3 11.75 ug/m3 19.76 C 62.51 % 1,002.45 mbar 0.43 m/s 286.84 Deg 0.28 ug/m3
2021-05-28 04:00 9.63 ug/m3 65.95 ug/m3 10.18 ug/m3 19.65 C 79.65 % 1,001.95 mbar 0.47 m/s 286.66 Deg 0 ug/m3
2021-05-28 03:00 7.85 ug/m3 66.33 ug/m3 11.3 ug/m3 19.42 C 73.7 % 1,002.10 mbar 0.55 m/s 278.32 Deg -0.02 ug/m3
2021-05-28 02:00 4.81 ug/m3 75.9 ug/m3 11.08 ug/m3 20.34 C 72 % 1,002.19 mbar 0.47 m/s 252.43 Deg 0.04 ug/m3
2021-05-28 01:00 6.64 ug/m3 71.18 ug/m3 10.8 ug/m3 20.55 C 68.35 % 1,002.58 mbar 0.49 m/s 305.92 Deg -0.02 ug/m3
2021-05-28 00:00 10.35 ug/m3 65.96 ug/m3 9.3 ug/m3 20.78 C 64.18 % 1,003.04 mbar 0.48 m/s 297.79 Deg 0.05 ug/m3
2021-05-27 23:00 2.42 ug/m3 85.94 ug/m3 7.83 ug/m3 21.14 C 62.64 % 1,003.23 mbar 0.56 m/s 324.34 Deg 0.02 ug/m3
2021-05-27 22:00 3.04 ug/m3 84.31 ug/m3 11.03 ug/m3 21.17 C 65.2 % 1,003.14 mbar 0.68 m/s 252.05 Deg -0.04 ug/m3
2021-05-27 21:00 5.68 ug/m3 79.68 ug/m3 11.23 ug/m3 21.24 C 67.53 % 1,003.06 mbar 0.82 m/s 260.27 Deg 0.12 ug/m3
2021-05-27 20:00 3.84 ug/m3 80.3 ug/m3 10.45 ug/m3 21.87 C 70.26 % 1,002.70 mbar 0.95 m/s 257.54 Deg 0.07 ug/m3
2021-05-27 19:00 3.88 ug/m3 81.87 ug/m3 12.25 ug/m3 23.34 C 59.15 % 1,002.56 mbar 1.1 m/s 309.47 Deg 0.07 ug/m3
2021-05-27 18:00 5.4 ug/m3 92.42 ug/m3 12.15 ug/m3 25.39 C 34.8 % 1,002.19 mbar 1.29 m/s 250.31 Deg 0.62 ug/m3
2021-05-27 17:00 5.26 ug/m3 94.86 ug/m3 10.93 ug/m3 26.39 C 36.97 % 1,002.42 mbar 1.33 m/s 270.72 Deg 0.68 ug/m3
2021-05-27 16:00 10.24 ug/m3 98.44 ug/m3 16.45 ug/m3 26.96 C 39.75 % 1,002.82 mbar 1.57 m/s 155.75 Deg 1.37 ug/m3
2021-05-27 15:00 16.31 ug/m3 97.43 ug/m3 12.1 ug/m3 26.62 C 40.58 % 1,002.88 mbar 1.74 m/s 239 Deg 2.76 ug/m3
2021-05-27 14:00 12.9 ug/m3 95.98 ug/m3 10.98 ug/m3 26.39 C 45.16 % 1,003.46 mbar 1.62 m/s 310.17 Deg 2.21 ug/m3
2021-05-27 13:00 6.6 ug/m3 93.57 ug/m3 11.98 ug/m3 26.64 C 32.32 % 1,003.95 mbar 1.46 m/s 286.98 Deg 1.18 ug/m3
2021-05-27 12:00 29.68 ug/m3 78.37 ug/m3 18.05 ug/m3 26.44 C 47.19 % 1,003.83 mbar 1.38 m/s 262.85 Deg 7 ug/m3
2021-05-27 11:00 21.33 ug/m3 86.72 ug/m3 20.6 ug/m3 25.75 C 52.67 % 1,003.60 mbar 1.59 m/s 255.68 Deg 4.12 ug/m3
2021-05-27 10:00 15.11 ug/m3 85.67 ug/m3 15.33 ug/m3 25.34 C 48.2 % 1,003.64 mbar 1.75 m/s 214.15 Deg 3.18 ug/m3
2021-05-27 09:00 10.09 ug/m3 84.3 ug/m3 23.7 ug/m3 25.18 C 41.38 % 1,003.73 mbar 0.93 m/s 166.89 Deg 1.37 ug/m3
2021-05-27 08:00 25.33 ug/m3 61.34 ug/m3 26.43 ug/m3 23.59 C 46.52 % 1,003.63 mbar 0.84 m/s 248.18 Deg 5.28 ug/m3
2021-05-27 07:00 69.69 ug/m3 15.47 ug/m3 16.53 ug/m3 20.26 C 68.74 % 1,003.14 mbar 0.6 m/s 195.79 Deg 34.13 ug/m3
2021-05-27 06:00 44.79 ug/m3 34.53 ug/m3 9.48 ug/m3 18.81 C 79.38 % 1,002.49 mbar 0.68 m/s 232.98 Deg 6.39 ug/m3
2021-05-27 05:00 10.79 ug/m3 69.6 ug/m3 6.63 ug/m3 18.72 C 84 % 1,003.24 mbar 0.57 m/s 261.53 Deg 0.12 ug/m3
2021-05-27 04:00 6.03 ug/m3 77.89 ug/m3 8.5 ug/m3 19.43 C 79.25 % 1,003.57 mbar 0.86 m/s 304.59 Deg 0.01 ug/m3
2021-05-27 03:00 5.48 ug/m3 77.44 ug/m3 8.03 ug/m3 19.83 C 54.81 % 1,003.49 mbar 0.81 m/s 255.41 Deg 0.04 ug/m3
2021-05-27 02:00 3.96 ug/m3 75.56 ug/m3 6.55 ug/m3 19.99 C 44.38 % 1,003.34 mbar 0.42 m/s 287.31 Deg 0 ug/m3
2021-05-27 01:00 9.65 ug/m3 74.1 ug/m3 6.8 ug/m3 20.07 C 44.67 % 1,003.33 mbar 0.46 m/s 228.93 Deg -0.05 ug/m3
2021-05-27 00:00 14.16 ug/m3 63.74 ug/m3 7 ug/m3 19.95 C 41.3 % 1,003.55 mbar 0.54 m/s 317.58 Deg 0.08 ug/m3
2021-05-26 23:00 15.79 ug/m3 66.5 ug/m3 8.73 ug/m3 19.99 C 42.05 % 1,003.97 mbar 0.52 m/s 288.68 Deg 0.13 ug/m3
2021-05-26 22:00 9.74 ug/m3 76.06 ug/m3 8.25 ug/m3 20.08 C 48.51 % 1,004.48 mbar 0.47 m/s 263.08 Deg 0.02 ug/m3
2021-05-26 21:00 2.97 ug/m3 93.17 ug/m3 8.65 ug/m3 19.64 C 71.62 % 1,004.33 mbar 0.67 m/s 326.77 Deg 0 ug/m3
2021-05-26 20:00 4.08 ug/m3 94.51 ug/m3 6.95 ug/m3 20.29 C 71.75 % 1,004.30 mbar 0.98 m/s 307.96 Deg 0.08 ug/m3
2021-05-26 19:00 3.24 ug/m3 97.84 ug/m3 8.63 ug/m3 21.31 C 63 % 1,004.54 mbar 1.1 m/s 323.22 Deg -0 ug/m3
2021-05-26 18:00 2.53 ug/m3 98.06 ug/m3 7.15 ug/m3 22.75 C 48.75 % 1,004.41 mbar 1.1 m/s 326.3 Deg 0.07 ug/m3
2021-05-26 17:00 2.4 ug/m3 98.11 ug/m3 7.75 ug/m3 24.03 C 40.15 % 1,004.23 mbar 1.49 m/s 324.68 Deg 0.34 ug/m3
2021-05-26 16:00 6.36 ug/m3 101.29 ug/m3 8.13 ug/m3 24.72 C 41.83 % 1,004.47 mbar 1.64 m/s 92.35 Deg 0.74 ug/m3
2021-05-26 15:00 7.34 ug/m3 101.02 ug/m3 8.93 ug/m3 24.86 C 35.46 % 1,004.87 mbar 1.91 m/s 107.17 Deg 0.88 ug/m3
2021-05-26 14:00 7.03 ug/m3 98.82 ug/m3 8.98 ug/m3 24.95 C 34.5 % 1,005.09 mbar 2.02 m/s 12.63 Deg 0.94 ug/m3
2021-05-26 13:00 5.56 ug/m3 94.96 ug/m3 12.05 ug/m3 24.81 C 35.47 % 1,005.53 mbar 2 m/s 25.75 Deg 0.75 ug/m3
2021-05-26 12:00 6.55 ug/m3 97.14 ug/m3 13.7 ug/m3 24.65 C 42.32 % 1,005.82 mbar 2.26 m/s 21.22 Deg 1 ug/m3
2021-05-26 11:00 4.95 ug/m3 95.93 ug/m3 18.4 ug/m3 24.78 C 51.13 % 1,006.16 mbar 1.68 m/s 343.9 Deg 0.62 ug/m3
2021-05-26 10:00 8.75 ug/m3 85.47 ug/m3 20.28 ug/m3 23.75 C 62.6 % 1,006.28 mbar 1.3 m/s 180.09 Deg 1.36 ug/m3
2021-05-26 09:00 12.74 ug/m3 75.2 ug/m3 22.95 ug/m3 22.14 C 72.56 % 1,006.16 mbar 1.48 m/s 17.62 Deg 2.24 ug/m3
2021-05-26 08:00 19.03 ug/m3 68.47 ug/m3 20.35 ug/m3 20.96 C 78.06 % 1,006.10 mbar 1.2 m/s 118.08 Deg 3.19 ug/m3
2021-05-26 07:00 21.21 ug/m3 61.98 ug/m3 18.98 ug/m3 19.9 C 84.04 % 1,005.71 mbar 1.04 m/s 232.65 Deg 2.6 ug/m3
2021-05-26 06:00 64.39 ug/m3 14.74 ug/m3 14.85 ug/m3 18.68 C 85.39 % 1,005.50 mbar 0.44 m/s 184.76 Deg 18.7 ug/m3
2021-05-26 05:00 29.59 ug/m3 36.97 ug/m3 14.78 ug/m3 18.14 C 87.41 % 1,005.34 mbar 0.43 m/s 217.74 Deg 0.54 ug/m3
2021-05-26 04:00 14.9 ug/m3 55.5 ug/m3 13.78 ug/m3 18.58 C 86.76 % 1,005.23 mbar 0.35 m/s 176.88 Deg 0.01 ug/m3
2021-05-26 03:00 16.52 ug/m3 59.59 ug/m3 13.15 ug/m3 18.81 C 83.63 % 1,005.17 mbar 0.49 m/s 169.4 Deg 0.05 ug/m3
2021-05-26 02:00 17.74 ug/m3 52.01 ug/m3 11.45 ug/m3 18.62 C 83.37 % 1,005.38 mbar 0.3 m/s 227.72 Deg -0.1 ug/m3
2021-05-26 01:00 13.01 ug/m3 53.44 ug/m3 9.78 ug/m3 18.68 C 84.27 % 1,005.76 mbar 0.44 m/s 253.41 Deg 0.08 ug/m3
2021-05-26 00:00 6.25 ug/m3 74.56 ug/m3 9.55 ug/m3 19.58 C 81.16 % 1,006.04 mbar 0.72 m/s 258.67 Deg -0.04 ug/m3
2021-05-25 23:00 8.98 ug/m3 72.17 ug/m3 9.68 ug/m3 19.88 C 77.17 % 1,006.07 mbar 0.56 m/s 162.44 Deg -0.05 ug/m3
2021-05-25 22:00 8.52 ug/m3 74.91 ug/m3 10.38 ug/m3 19.95 C 76.5 % 1,005.91 mbar 0.61 m/s 174.25 Deg 0.03 ug/m3
2021-05-25 21:00 6.22 ug/m3 76.46 ug/m3 10.83 ug/m3 19.84 C 79.36 % 1,005.49 mbar 0.59 m/s 325.59 Deg -0.01 ug/m3
2021-05-25 20:00 5.68 ug/m3 82.1 ug/m3 10.6 ug/m3 20.21 C 79.46 % 1,005.08 mbar 1.19 m/s 335.05 Deg 0.05 ug/m3
2021-05-25 19:00 5.21 ug/m3 87.23 ug/m3 13.2 ug/m3 21.75 C 70.64 % 1,004.79 mbar 1.05 m/s 307.81 Deg 0.2 ug/m3
2021-05-25 18:00 5.71 ug/m3 92.01 ug/m3 11.63 ug/m3 22.69 C 66.41 % 1,004.67 mbar 1.29 m/s 341.33 Deg 0.22 ug/m3
2021-05-25 17:00 3.19 ug/m3 92.8 ug/m3 15.9 ug/m3 24.01 C 57.06 % 1,004.75 mbar 1.37 m/s 255.83 Deg 0.35 ug/m3
2021-05-25 16:00 3.64 ug/m3 94.07 ug/m3 15.58 ug/m3 24.43 C 56.45 % 1,005.10 mbar 1.62 m/s 325.88 Deg 0.51 ug/m3
2021-05-25 15:00 4.47 ug/m3 94.89 ug/m3 17.38 ug/m3 24.51 C 52.66 % 1,005.51 mbar 1.84 m/s 258.68 Deg 0.67 ug/m3
2021-05-25 14:00 5.2 ug/m3 96.52 ug/m3 17.53 ug/m3 24.91 C 54.61 % 1,005.82 mbar 1.5 m/s 247.85 Deg 0.82 ug/m3
2021-05-25 13:00 5.54 ug/m3 93.77 ug/m3 20.68 ug/m3 24.54 C 58.84 % 1,006.15 mbar 1.9 m/s 343.93 Deg 0.69 ug/m3
2021-05-25 12:00 10.57 ug/m3 98.11 ug/m3 25.85 ug/m3 24.66 C 56.24 % 1,006.38 mbar 1.94 m/s 21 Deg 1.54 ug/m3
2021-05-25 11:00 13.47 ug/m3 96.81 ug/m3 17.9 ug/m3 24.47 C 56.08 % 1,006.42 mbar 1.2 m/s 180.04 Deg 2.22 ug/m3
2021-05-25 10:00 11.05 ug/m3 99.15 ug/m3 17.5 ug/m3 23.58 C 54.8 % 1,006.60 mbar 1.22 m/s 108.15 Deg 1.67 ug/m3
2021-05-25 09:00 11.91 ug/m3 99.05 ug/m3 16.3 ug/m3 22.64 C 56.96 % 1,006.64 mbar 1.35 m/s 22.68 Deg 1.83 ug/m3
2021-05-25 08:00 19.37 ug/m3 83.33 ug/m3 16.2 ug/m3 21.06 C 69.28 % 1,006.42 mbar 1.41 m/s 171.12 Deg 2.85 ug/m3
2021-05-25 07:00 24.67 ug/m3 57.82 ug/m3 12.8 ug/m3 19.2 C 96.17 % 1,006.21 mbar 1.43 m/s 25.7 Deg 2.97 ug/m3
2021-05-25 06:00 15.96 ug/m3 56.53 ug/m3 13.55 ug/m3 18.47 C 99.54 % 1,006.05 mbar 1.04 m/s 97.05 Deg 0.46 ug/m3
2021-05-25 05:00 9.96 ug/m3 64.67 ug/m3 14.2 ug/m3 18.14 C 98.33 % 1,005.73 mbar 1.13 m/s 262.09 Deg 0.04 ug/m3
2021-05-25 04:00 13.3 ug/m3 61.38 ug/m3 16.53 ug/m3 18.18 C 97.64 % 1,005.33 mbar 0.62 m/s 267.35 Deg 0 ug/m3
2021-05-25 03:00 9.36 ug/m3 74.08 ug/m3 14 ug/m3 18.69 C 96.88 % 1,005.40 mbar 0.85 m/s 95.43 Deg -0.01 ug/m3
2021-05-25 02:00 9.63 ug/m3 75.87 ug/m3 10.65 ug/m3 18.84 C 91.21 % 1,005.75 mbar 1.06 m/s 99.16 Deg -0.04 ug/m3
2021-05-25 01:00 17.29 ug/m3 68.64 ug/m3 9.08 ug/m3 18.8 C 81.42 % 1,006.03 mbar 0.88 m/s 266.68 Deg 0.01 ug/m3
2021-05-25 00:00 23.24 ug/m3 61.46 ug/m3 8.5 ug/m3 19.36 C 76.78 % 1,005.95 mbar 0.37 m/s 321.42 Deg -0.01 ug/m3
2021-05-24 23:00 17.26 ug/m3 72.01 ug/m3 6.15 ug/m3 19.6 C 76.77 % 1,005.97 mbar 0.35 m/s 230.52 Deg -0.01 ug/m3
2021-05-24 22:00 4.78 ug/m3 104.02 ug/m3 6.98 ug/m3 20.14 C 74.81 % 1,005.91 mbar 1.04 m/s 176.25 Deg -0.02 ug/m3
2021-05-24 21:00 5.99 ug/m3 104.68 ug/m3 8.18 ug/m3 20.45 C 72.52 % 1,005.54 mbar 1.57 m/s 156.45 Deg 0.07 ug/m3
2021-05-24 20:00 8.48 ug/m3 101.32 ug/m3 9.38 ug/m3 20.57 C 73.45 % 1,004.96 mbar 1.74 m/s 149.8 Deg 0.19 ug/m3
2021-05-24 19:00 10.83 ug/m3 96.78 ug/m3 9.25 ug/m3 21.07 C 72.86 % 1,004.67 mbar 2.15 m/s 251.07 Deg 0.55 ug/m3
2021-05-24 18:00 11.55 ug/m3 94.08 ug/m3 8.95 ug/m3 22.08 C 68.3 % 1,004.27 mbar 2.11 m/s 196.38 Deg 1.22 ug/m3
2021-05-24 17:00 14.28 ug/m3 91.28 ug/m3 7.33 ug/m3 22.81 C 66.83 % 1,003.89 mbar 2.33 m/s 208.47 Deg 2.23 ug/m3
2021-05-24 16:00 13.12 ug/m3 90.7 ug/m3 16.7 ug/m3 23.4 C 62.14 % 1,003.45 mbar 2.95 m/s 198.67 Deg 2.39 ug/m3
2021-05-24 15:00 17.69 ug/m3 93.06 ug/m3 22.93 ug/m3 24.76 C 45.52 % 1,003.96 mbar 3.58 m/s 169.35 Deg 4.23 ug/m3
2021-05-24 14:00 10.5 ug/m3 95.55 ug/m3 19.25 ug/m3 24.24 C 53.51 % 1,003.15 mbar 4.59 m/s 146.58 Deg 2.88 ug/m3
2021-05-24 13:00 10.47 ug/m3 99.87 ug/m3 25.35 ug/m3 24.32 C 53.61 % 1,003.37 mbar 4.4 m/s 142.08 Deg 2.37 ug/m3
2021-05-24 12:00 13.65 ug/m3 98.5 ug/m3 18.83 ug/m3 24.24 C 53.2 % 1,004.06 mbar 4.21 m/s 148.62 Deg 3.39 ug/m3
2021-05-24 11:00 11.49 ug/m3 97.84 ug/m3 15.88 ug/m3 23.47 C 57.94 % 1,004.55 mbar 4.18 m/s 142.53 Deg 2.63 ug/m3
2021-05-24 10:00 15.48 ug/m3 92.55 ug/m3 15.23 ug/m3 22.96 C 61.4 % 1,004.63 mbar 3.65 m/s 157.03 Deg 3.35 ug/m3
2021-05-24 09:00 23.98 ug/m3 77.88 ug/m3 13.58 ug/m3 21.85 C 66.83 % 1,004.73 mbar 2.9 m/s 157.5 Deg 6.79 ug/m3
2021-05-24 08:00 27.97 ug/m3 73.36 ug/m3 12.65 ug/m3 21.03 C 72.79 % 1,004.63 mbar 2.73 m/s 148.43 Deg 5.94 ug/m3
2021-05-24 07:00 34.51 ug/m3 61.36 ug/m3 12.88 ug/m3 19.42 C 93.61 % 1,004.28 mbar 2.08 m/s 150.85 Deg 5.82 ug/m3
2021-05-24 06:00 43.54 ug/m3 39.42 ug/m3 11.35 ug/m3 18.15 C 99.96 % 1,004.14 mbar 1.21 m/s 167.26 Deg 4.28 ug/m3
2021-05-24 05:00 32.09 ug/m3 46.09 ug/m3 9.3 ug/m3 17.79 C 98.51 % 1,003.79 mbar 1.33 m/s 166.6 Deg 0.64 ug/m3
2021-05-24 04:00 20.06 ug/m3 57.57 ug/m3 9.33 ug/m3 18.25 C 95.27 % 1,004.16 mbar 1.27 m/s 154.42 Deg 0.16 ug/m3
2021-05-24 03:00 24.75 ug/m3 56.21 ug/m3 7.55 ug/m3 18.6 C 90.19 % 1,004.57 mbar 0.89 m/s 164.62 Deg 0 ug/m3
2021-05-24 02:00 21.12 ug/m3 53.57 ug/m3 5.48 ug/m3 18.66 C 86.93 % 1,005.02 mbar 0.48 m/s 178.98 Deg 0.09 ug/m3
2021-05-24 01:00 7.36 ug/m3 75.49 ug/m3 4.25 ug/m3 19.09 C 82.09 % 1,005.04 mbar 1.22 m/s 160.37 Deg -0.01 ug/m3
2021-05-24 00:00 6.82 ug/m3 81.09 ug/m3 4.83 ug/m3 19.16 C 76.44 % 1,005.16 mbar 1.64 m/s 168.03 Deg 0.01 ug/m3
2021-05-23 23:00 2.53 ug/m3 83.07 ug/m3 6.75 ug/m3 19.21 C 83.07 % 1,005.39 mbar 1.64 m/s 181.78 Deg -0.04 ug/m3
2021-05-23 22:00 2.77 ug/m3 84.09 ug/m3 8.13 ug/m3 19.64 C 78.88 % 1,005.36 mbar 1.85 m/s 172.3 Deg -0.03 ug/m3
2021-05-23 21:00 2.63 ug/m3 87.55 ug/m3 6.98 ug/m3 19.98 C 75.24 % 1,004.99 mbar 2.63 m/s 182.95 Deg 0.17 ug/m3
2021-05-23 20:00 5.02 ug/m3 89.34 ug/m3 6.95 ug/m3 20.66 C 64.2 % 1,004.75 mbar 2.49 m/s 168.92 Deg 0.2 ug/m3
2021-05-23 19:00 3.16 ug/m3 95.36 ug/m3 7.33 ug/m3 21.66 C 52.8 % 1,004.63 mbar 2.81 m/s 172.48 Deg 0.29 ug/m3
2021-05-23 18:00 1.92 ug/m3 99.63 ug/m3 7.55 ug/m3 22.65 C 45.68 % 1,004.51 mbar 3.42 m/s 183.88 Deg 0.4 ug/m3
2021-05-23 17:00 1.47 ug/m3 99.86 ug/m3 8.13 ug/m3 23.43 C 45.17 % 1,004.85 mbar 3.15 m/s 181.77 Deg 0.29 ug/m3
2021-05-23 16:00 1.2 ug/m3 99.42 ug/m3 8.3 ug/m3 24.12 C 41.03 % 1,005.10 mbar 3.44 m/s 184.23 Deg 0.35 ug/m3
2021-05-23 15:00 0.97 ug/m3 101.5 ug/m3 5.53 ug/m3 24.45 C 39.15 % 1,005.17 mbar 3.42 m/s 181.22 Deg 0.24 ug/m3
2021-05-23 14:00 1.3 ug/m3 105.65 ug/m3 4.75 ug/m3 25.05 C 34.15 % 1,005.38 mbar 3.23 m/s 177.47 Deg 0.27 ug/m3
2021-05-23 13:00 1.65 ug/m3 108.32 ug/m3 6.53 ug/m3 25.08 C 30.15 % 1,005.94 mbar 2.76 m/s 201.23 Deg 0.42 ug/m3
2021-05-23 12:00 2.5 ug/m3 106.3 ug/m3 12.43 ug/m3 24.52 C 33.47 % 1,006.49 mbar 2.63 m/s 195.23 Deg 0.43 ug/m3
2021-05-23 11:00 3.35 ug/m3 104.87 ug/m3 6.25 ug/m3 24.15 C 37.91 % 1,006.51 mbar 2.59 m/s 186.23 Deg 0.69 ug/m3
2021-05-23 10:00 3.22 ug/m3 100.63 ug/m3 9 ug/m3 23.34 C 45.75 % 1,006.22 mbar 2.53 m/s 182.57 Deg 0.58 ug/m3
2021-05-23 09:00 9.1 ug/m3 91.39 ug/m3 9.68 ug/m3 21.98 C 63.97 % 1,006.24 mbar 2.13 m/s 167.1 Deg 1.57 ug/m3
2021-05-23 08:00 4.05 ug/m3 92.1 ug/m3 8.18 ug/m3 20.34 C 75.4 % 1,006.10 mbar 1.98 m/s 171.47 Deg 0.61 ug/m3
2021-05-23 07:00 4.67 ug/m3 86.19 ug/m3 6.38 ug/m3 18.79 C 91.91 % 1,005.99 mbar 1.98 m/s 167.28 Deg 0.38 ug/m3
2021-05-23 06:00 5.89 ug/m3 75.95 ug/m3 7.33 ug/m3 17.83 C 98.58 % 1,005.72 mbar 1.52 m/s 171.95 Deg 0.13 ug/m3
2021-05-23 05:00 1.75 ug/m3 82.35 ug/m3 7.35 ug/m3 17.72 C 97.97 % 1,005.27 mbar 1.62 m/s 171.65 Deg 0.07 ug/m3
2021-05-23 04:00 0.53 ug/m3 84.54 ug/m3 6.98 ug/m3 17.71 C 96.72 % 1,005.03 mbar 1.77 m/s 171.68 Deg -0.1 ug/m3
2021-05-23 03:00 1.14 ug/m3 83.45 ug/m3 5.1 ug/m3 17.66 C 95.51 % 1,005.23 mbar 1.77 m/s 180.17 Deg 0.01 ug/m3
2021-05-23 02:00 1.59 ug/m3 81.57 ug/m3 5.18 ug/m3 17.61 C 93.8 % 1,005.64 mbar 1.79 m/s 181.9 Deg 0.07 ug/m3
2021-05-23 01:00 6.08 ug/m3 76.43 ug/m3 3.98 ug/m3 17.67 C 90.82 % 1,006.24 mbar 1.53 m/s 179.95 Deg 0.23 ug/m3
2021-05-23 00:00 2.54 ug/m3 82.87 ug/m3 3.8 ug/m3 17.92 C 88.33 % 1,006.53 mbar 1.38 m/s 170.77 Deg -0.03 ug/m3
2021-05-22 23:00 3.96 ug/m3 85.55 ug/m3 4.05 ug/m3 18.13 C 86.01 % 1,006.55 mbar 1.83 m/s 178.5 Deg 0.04 ug/m3
2021-05-22 22:00 2.57 ug/m3 91.71 ug/m3 4.4 ug/m3 18.42 C 83.02 % 1,006.58 mbar 2.33 m/s 179.68 Deg 0.07 ug/m3
2021-05-22 21:00 2.07 ug/m3 96.53 ug/m3 3.83 ug/m3 18.62 C 80.34 % 1,006.29 mbar 2.92 m/s 178.6 Deg 0.32 ug/m3
2021-05-22 20:00 2.99 ug/m3 97.99 ug/m3 5.25 ug/m3 18.96 C 77.06 % 1,005.94 mbar 3.02 m/s 180.67 Deg 0.21 ug/m3
2021-05-22 19:00 2.53 ug/m3 100.05 ug/m3 6.63 ug/m3 19.51 C 73 % 1,005.92 mbar 3.61 m/s 187.73 Deg 0.37 ug/m3
2021-05-22 18:00 2.14 ug/m3 101.08 ug/m3 6.75 ug/m3 20.32 C 68.22 % 1,005.91 mbar 3.72 m/s 186.95 Deg 0.47 ug/m3
2021-05-22 17:00 1.78 ug/m3 100.41 ug/m3 8.73 ug/m3 20.87 C 65.53 % 1,006.06 mbar 3.68 m/s 188.5 Deg 0.56 ug/m3
2021-05-22 16:00 1.8 ug/m3 101.39 ug/m3 9.55 ug/m3 21.03 C 63.66 % 1,006.36 mbar 4.06 m/s 187.4 Deg 0.59 ug/m3
2021-05-22 15:00 1.82 ug/m3 103.53 ug/m3 6.23 ug/m3 21.34 C 61.17 % 1,007.09 mbar 3.75 m/s 202.32 Deg 0.46 ug/m3
2021-05-22 14:00 1.8 ug/m3 108.19 ug/m3 7.35 ug/m3 21.42 C 60.23 % 1,007.69 mbar 4.18 m/s 189.67 Deg 0.51 ug/m3
2021-05-22 13:00 3.08 ug/m3 106.13 ug/m3 11.4 ug/m3 21.32 C 60.68 % 1,007.95 mbar 3.76 m/s 200.45 Deg 0.8 ug/m3
2021-05-22 12:00 4.89 ug/m3 102.88 ug/m3 13.48 ug/m3 21.01 C 63.26 % 1,008.16 mbar 3.71 m/s 201.28 Deg 1.49 ug/m3
2021-05-22 11:00 5.39 ug/m3 98.15 ug/m3 13.13 ug/m3 20.63 C 65.3 % 1,008.18 mbar 4.25 m/s 198.43 Deg 1.67 ug/m3
2021-05-22 10:00 8.5 ug/m3 94.57 ug/m3 11.63 ug/m3 20.45 C 65.53 % 1,007.68 mbar 3.63 m/s 195.17 Deg 2.64 ug/m3
2021-05-22 09:00 7.36 ug/m3 95.34 ug/m3 10.98 ug/m3 19.93 C 68.3 % 1,007.72 mbar 3.5 m/s 202.55 Deg 2 ug/m3
2021-05-22 08:00 8.63 ug/m3 94.24 ug/m3 10.45 ug/m3 19.48 C 69.34 % 1,007.44 mbar 3.12 m/s 195.23 Deg 2.03 ug/m3
2021-05-22 07:00 12.16 ug/m3 94.28 ug/m3 13.6 ug/m3 18.62 C 72.76 % 1,007.25 mbar 2.92 m/s 208.75 Deg 1.47 ug/m3
2021-05-22 06:00 29.6 ug/m3 55.25 ug/m3 11.55 ug/m3 16.5 C 79.43 % 1,007.56 mbar 0.79 m/s 238 Deg 1.75 ug/m3
2021-05-22 05:00 15.22 ug/m3 61.33 ug/m3 7.95 ug/m3 15.7 C 79.91 % 1,007.44 mbar 0.4 m/s 288.68 Deg 0.1 ug/m3
2021-05-22 04:00 9.38 ug/m3 66.49 ug/m3 7.85 ug/m3 16.23 C 78.08 % 1,007.34 mbar 0.61 m/s 241.9 Deg 0.23 ug/m3
2021-05-22 03:00 2.18 ug/m3 77.87 ug/m3 8.4 ug/m3 16.81 C 78.36 % 1,007.22 mbar 0.69 m/s 207.32 Deg -0.06 ug/m3
2021-05-22 02:00 1.14 ug/m3 81.7 ug/m3 9.03 ug/m3 17.14 C 78.92 % 1,007.36 mbar 1.2 m/s 192.58 Deg -0.04 ug/m3
2021-05-22 01:00 2.34 ug/m3 80.76 ug/m3 8.3 ug/m3 17.15 C 78.58 % 1,008.10 mbar 0.98 m/s 209.13 Deg -0.05 ug/m3
2021-05-22 00:00 3.85 ug/m3 85.58 ug/m3 9.2 ug/m3 17.38 C 77.48 % 1,008.70 mbar 1.07 m/s 210.13 Deg 0.07 ug/m3
2021-05-21 23:00 4.81 ug/m3 79.3 ug/m3 8.48 ug/m3 17.68 C 77.9 % 1,009.16 mbar 0.95 m/s 216.1 Deg 0.13 ug/m3
2021-05-21 22:00 7.97 ug/m3 76.97 ug/m3 10.13 ug/m3 17.93 C 75.62 % 1,009.10 mbar 1.23 m/s 205.87 Deg 0.1 ug/m3
2021-05-21 21:00 8.09 ug/m3 82.12 ug/m3 10.2 ug/m3 18.33 C 70.63 % 1,008.99 mbar 1.11 m/s 202.87 Deg 0.2 ug/m3
2021-05-21 20:00 4.69 ug/m3 94.44 ug/m3 6.93 ug/m3 18.77 C 66.95 % 1,008.80 mbar 1.56 m/s 193.8 Deg 0.37 ug/m3
2021-05-21 19:00 4.69 ug/m3 99.27 ug/m3 7.03 ug/m3 19.89 C 48.03 % 1,008.60 mbar 1.94 m/s 202.67 Deg 0.4 ug/m3
2021-05-21 18:00 3.8 ug/m3 98.31 ug/m3 6.58 ug/m3 21.13 C 42.74 % 1,008.63 mbar 1.78 m/s 211.43 Deg 0.65 ug/m3
2021-05-21 17:00 3.62 ug/m3 98.12 ug/m3 7.73 ug/m3 21.3 C 46.38 % 1,008.69 mbar 2.14 m/s 206.08 Deg 0.8 ug/m3
2021-05-21 16:00 6.32 ug/m3 96.36 ug/m3 12.03 ug/m3 21.74 C 45.52 % 1,008.60 mbar 2.73 m/s 211.62 Deg 1.37 ug/m3
2021-05-21 15:00 14.92 ug/m3 95.02 ug/m3 14.28 ug/m3 21.98 C 43.48 % 1,008.69 mbar 2.54 m/s 183.13 Deg 3.77 ug/m3
2021-05-21 14:00 13.95 ug/m3 99.28 ug/m3 11.53 ug/m3 21.98 C 43.27 % 1,009.12 mbar 2.39 m/s 204.35 Deg 3.34 ug/m3
2021-05-21 13:00 8.96 ug/m3 99.76 ug/m3 11.78 ug/m3 21.91 C 42.34 % 1,009.32 mbar 2.52 m/s 209.92 Deg 2.05 ug/m3
2021-05-21 12:00 9.83 ug/m3 98.69 ug/m3 12.28 ug/m3 21.53 C 48.54 % 1,009.66 mbar 2.89 m/s 199.73 Deg 2.61 ug/m3
2021-05-21 11:00 10.88 ug/m3 95.64 ug/m3 13.88 ug/m3 20.81 C 59.28 % 1,009.91 mbar 2.94 m/s 194.87 Deg 2.26 ug/m3
2021-05-21 10:00 8.11 ug/m3 93.14 ug/m3 12.68 ug/m3 20.47 C 62.39 % 1,009.84 mbar 2.24 m/s 226.32 Deg 1.78 ug/m3
2021-05-21 09:00 6.42 ug/m3 94.02 ug/m3 8.43 ug/m3 19.68 C 64.41 % 1,009.58 mbar 2.42 m/s 270.82 Deg 1.3 ug/m3
2021-05-21 08:00 10.33 ug/m3 89.84 ug/m3 12.68 ug/m3 19.28 C 59.99 % 1,009.01 mbar 2.47 m/s 281.78 Deg 1.98 ug/m3
2021-05-21 07:00 17.31 ug/m3 82.09 ug/m3 9.48 ug/m3 18.67 C 59.6 % 1,008.57 mbar 1.97 m/s 230.98 Deg 1.9 ug/m3
2021-05-21 06:00 19.88 ug/m3 69.38 ug/m3 8.48 ug/m3 17.32 C 73.3 % 1,008.17 mbar 1.03 m/s 171.2 Deg 1.01 ug/m3
2021-05-21 05:00 7.24 ug/m3 73.27 ug/m3 10.35 ug/m3 16.96 C 81.02 % 1,007.83 mbar 0.67 m/s 86.79 Deg 0.06 ug/m3
2021-05-21 04:00 3.81 ug/m3 80.64 ug/m3 9.93 ug/m3 17.13 C 77.25 % 1,007.42 mbar 0.95 m/s 194.51 Deg -0.07 ug/m3
2021-05-21 03:00 3.07 ug/m3 83.56 ug/m3 10.58 ug/m3 17.46 C 79.07 % 1,007.50 mbar 1.11 m/s 42.94 Deg 0.13 ug/m3
2021-05-21 02:00 2.53 ug/m3 84.82 ug/m3 9.1 ug/m3 17.68 C 76.83 % 1,007.45 mbar 1.05 m/s 43.9 Deg -0 ug/m3
2021-05-21 01:00 2.9 ug/m3 88.01 ug/m3 7.08 ug/m3 18.09 C 74.46 % 1,007.51 mbar 1.14 m/s 193.15 Deg -0.04 ug/m3
2021-05-21 00:00 3.85 ug/m3 88.72 ug/m3 6.38 ug/m3 18.17 C 73.06 % 1,007.38 mbar 1.1 m/s 305.68 Deg 0.02 ug/m3
2021-05-20 23:00 4.82 ug/m3 84.4 ug/m3 4.35 ug/m3 18.23 C 74.34 % 1,007.12 mbar 1.38 m/s 41.38 Deg 0.06 ug/m3
2021-05-20 22:00 2.48 ug/m3 82.76 ug/m3 7 ug/m3 18.2 C 76 % 1,006.76 mbar 2.1 m/s 177.98 Deg 0.1 ug/m3
2021-05-20 21:00 4.47 ug/m3 84.47 ug/m3 8.48 ug/m3 18.17 C 70.23 % 1,006.28 mbar 2.56 m/s 96.65 Deg 0.01 ug/m3
2021-05-20 20:00 6.71 ug/m3 84.94 ug/m3 9.58 ug/m3 18.06 C 68.77 % 1,005.41 mbar 2.52 m/s 171.62 Deg 0.1 ug/m3
2021-05-20 19:00 3.01 ug/m3 87.22 ug/m3 12.08 ug/m3 18.89 C 66.23 % 1,005.05 mbar 1.86 m/s 335.45 Deg 0.18 ug/m3
2021-05-20 18:00 2.53 ug/m3 91.15 ug/m3 13.78 ug/m3 19.53 C 62.7 % 1,004.46 mbar 1.86 m/s 315.12 Deg 0.18 ug/m3
2021-05-20 17:00 2.06 ug/m3 93.58 ug/m3 19.05 ug/m3 20.69 C 54.1 % 1,004.20 mbar 2.14 m/s 341.95 Deg 0.36 ug/m3
2021-05-20 16:00 3.09 ug/m3 92.5 ug/m3 23.48 ug/m3 21.46 C 54.91 % 1,003.96 mbar 2.47 m/s 317.19 Deg 0.53 ug/m3
2021-05-20 15:00 2.98 ug/m3 89.96 ug/m3 17.05 ug/m3 21.4 C 55.94 % 1,004.15 mbar 2.9 m/s 323.17 Deg 0.74 ug/m3
2021-05-20 14:00 3.5 ug/m3 93.13 ug/m3 21.65 ug/m3 21.22 C 55.19 % 1,004.28 mbar 2.73 m/s 256.29 Deg 0.74 ug/m3
2021-05-20 13:00 2.57 ug/m3 95.34 ug/m3 27.6 ug/m3 21.23 C 53.01 % 1,004.33 mbar 3.14 m/s 342.35 Deg 0.48 ug/m3
2021-05-20 12:00 3.34 ug/m3 94.81 ug/m3 34.2 ug/m3 21.67 C 45.61 % 1,004.43 mbar 3.15 m/s 261.12 Deg 0.58 ug/m3
2021-05-20 11:00 3.64 ug/m3 91.03 ug/m3 27.23 ug/m3 21.43 C 43.88 % 1,004.50 mbar 3.59 m/s 261.77 Deg 0.65 ug/m3
2021-05-20 10:00 4.81 ug/m3 86.35 ug/m3 19.13 ug/m3 21.1 C 51.78 % 1,004.27 mbar 3.34 m/s 259.6 Deg 1.34 ug/m3
2021-05-20 09:00 4.56 ug/m3 85.15 ug/m3 17.78 ug/m3 20.03 C 64.8 % 1,004.20 mbar 2.18 m/s 340.92 Deg 1.23 ug/m3
2021-05-20 08:00 5.25 ug/m3 82.36 ug/m3 12.35 ug/m3 19.37 C 63.97 % 1,004.12 mbar 2.2 m/s 326.92 Deg 0.87 ug/m3
2021-05-20 07:00 5.83 ug/m3 82.16 ug/m3 11.33 ug/m3 19.09 C 60.54 % 1,003.35 mbar 2.34 m/s 327.9 Deg 0.7 ug/m3
2021-05-20 06:00 9.95 ug/m3 76.31 ug/m3 6.5 ug/m3 18.27 C 68.28 % 1,003.24 mbar 1.69 m/s 332.53 Deg 0.42 ug/m3
2021-05-20 05:00 4.22 ug/m3 81.19 ug/m3 5.93 ug/m3 18.28 C 73.76 % 1,003.01 mbar 2.13 m/s 262.97 Deg -0 ug/m3
2021-05-20 04:00 4 ug/m3 77.83 ug/m3 5.48 ug/m3 18.42 C 76.74 % 1,002.69 mbar 1.74 m/s 342.7 Deg 0.13 ug/m3
2021-05-20 03:00 2.52 ug/m3 79.14 ug/m3 5.58 ug/m3 18.48 C 77.73 % 1,002.48 mbar 1.81 m/s 347.63 Deg -0.01 ug/m3
2021-05-20 02:00 0.86 ug/m3 83.89 ug/m3 6.45 ug/m3 18.68 C 75.56 % 1,002.63 mbar 1.35 m/s 336.39 Deg 0.06 ug/m3
2021-05-20 01:00 0.75 ug/m3 87.17 ug/m3 4.9 ug/m3 18.94 C 72.56 % 1,003.02 mbar 1.4 m/s 335.21 Deg -0.05 ug/m3
2021-05-20 00:00 0.98 ug/m3 85.34 ug/m3 5.73 ug/m3 19.26 C 68.39 % 1,003.13 mbar 1.6 m/s 251.96 Deg 0.03 ug/m3
2021-05-19 23:00 2 ug/m3 88.54 ug/m3 6.95 ug/m3 19.59 C 63.73 % 1,003.22 mbar 1.51 m/s 338.77 Deg 0.06 ug/m3
2021-05-19 22:00 1.94 ug/m3 92.16 ug/m3 9 ug/m3 19.63 C 62.52 % 1,003.22 mbar 2.03 m/s 342.64 Deg -0.04 ug/m3
2021-05-19 21:00 3.71 ug/m3 94.15 ug/m3 10.13 ug/m3 20.13 C 57.59 % 1,002.95 mbar 1.47 m/s 338.93 Deg 0.04 ug/m3
2021-05-19 20:00 5.97 ug/m3 93.44 ug/m3 11.2 ug/m3 20.56 C 55.66 % 1,002.58 mbar 1.2 m/s 323.39 Deg 0.34 ug/m3
2021-05-19 19:00 5.17 ug/m3 99.87 ug/m3 10.6 ug/m3 21.89 C 50.83 % 1,002.27 mbar 1.29 m/s 335.34 Deg 0.22 ug/m3
2021-05-19 18:00 5.27 ug/m3 103.03 ug/m3 11.88 ug/m3 24.24 C 40.1 % 1,001.86 mbar 1.54 m/s 339.44 Deg 0.3 ug/m3
2021-05-19 17:00 5.84 ug/m3 98.25 ug/m3 14.8 ug/m3 25.95 C 36.82 % 1,001.75 mbar 1.97 m/s 322.98 Deg 0.7 ug/m3
2021-05-19 16:00 4.67 ug/m3 99.12 ug/m3 13.58 ug/m3 26.14 C 37.18 % 1,001.99 mbar 2.16 m/s 259.33 Deg 0.63 ug/m3
2021-05-19 15:00 8.49 ug/m3 93.57 ug/m3 13.35 ug/m3 25.79 C 36.27 % 1,002.22 mbar 2.33 m/s 176.77 Deg 1.61 ug/m3
2021-05-19 14:00 8.11 ug/m3 94.57 ug/m3 17.78 ug/m3 24.86 C 32.11 % 1,002.76 mbar 2.76 m/s 185.22 Deg 2.27 ug/m3
2021-05-19 13:00 6.08 ug/m3 99.5 ug/m3 15.45 ug/m3 25.19 C 40.4 % 1,003.04 mbar 2.99 m/s 94.08 Deg 0.83 ug/m3
2021-05-19 12:00 5.89 ug/m3 99.86 ug/m3 16.68 ug/m3 27.03 C 29.48 % 1,003.28 mbar 1.75 m/s 326.93 Deg 0.59 ug/m3
2021-05-19 11:00 7.28 ug/m3 88.19 ug/m3 12.63 ug/m3 25.11 C 46.29 % 1,003.63 mbar 1.44 m/s 254.7 Deg 1.15 ug/m3
2021-05-19 10:00 6.27 ug/m3 84.48 ug/m3 11.6 ug/m3 23.28 C 52.02 % 1,003.56 mbar 1.71 m/s 327.63 Deg 1.25 ug/m3
2021-05-19 09:00 7.8 ug/m3 78.33 ug/m3 10.53 ug/m3 21.91 C 56.11 % 1,003.66 mbar 1.65 m/s 322.07 Deg 1.71 ug/m3
2021-05-19 08:00 13.44 ug/m3 74.4 ug/m3 11.3 ug/m3 21.66 C 48.4 % 1,003.47 mbar 1.45 m/s 323.89 Deg 2.89 ug/m3
2021-05-19 07:00 10.5 ug/m3 72.61 ug/m3 7.58 ug/m3 19.91 C 58.9 % 1,003.39 mbar 1.39 m/s 338.33 Deg 1.14 ug/m3
2021-05-19 06:00 9.49 ug/m3 69.11 ug/m3 6.88 ug/m3 18.31 C 72.25 % 1,003.26 mbar 1.52 m/s 339.83 Deg 0.51 ug/m3
2021-05-19 05:00 6.15 ug/m3 66.98 ug/m3 7.25 ug/m3 17.92 C 75.26 % 1,002.83 mbar 0.7 m/s 324.51 Deg -0.03 ug/m3
2021-05-19 04:00 6.23 ug/m3 68.76 ug/m3 9.03 ug/m3 18.83 C 69.94 % 1,002.84 mbar 0.79 m/s 291.45 Deg -0 ug/m3
2021-05-19 03:00 8.29 ug/m3 63.81 ug/m3 7.58 ug/m3 18.31 C 68.21 % 1,002.77 mbar 0.56 m/s 290.33 Deg 0.09 ug/m3
2021-05-19 02:00 6.1 ug/m3 68.02 ug/m3 6 ug/m3 18.58 C 69.49 % 1,003.09 mbar 0.59 m/s 304.97 Deg 0.04 ug/m3
2021-05-19 01:00 7.01 ug/m3 72.73 ug/m3 6 ug/m3 18.78 C 62.74 % 1,003.73 mbar 0.51 m/s 296.61 Deg 0.05 ug/m3
2021-05-19 00:00 7.06 ug/m3 72.82 ug/m3 5.95 ug/m3 18.88 C 66.31 % 1,004.10 mbar 0.47 m/s 300.37 Deg 0.08 ug/m3
2021-05-18 23:00 5.08 ug/m3 81.67 ug/m3 4.7 ug/m3 19.05 C 68.21 % 1,004.41 mbar 0.79 m/s 335.08 Deg -0.07 ug/m3
2021-05-18 22:00 4.22 ug/m3 86.46 ug/m3 6.55 ug/m3 19.49 C 63.87 % 1,004.40 mbar 0.65 m/s 316.64 Deg 0.02 ug/m3
2021-05-18 21:00 5.9 ug/m3 91.9 ug/m3 11.2 ug/m3 19.92 C 60.81 % 1,003.97 mbar 0.85 m/s 326.74 Deg -0.01 ug/m3
2021-05-18 20:00 10.56 ug/m3 87.78 ug/m3 12.43 ug/m3 20.97 C 56.2 % 1,003.48 mbar 0.61 m/s 306.93 Deg 0.14 ug/m3
2021-05-18 19:00 8.72 ug/m3 92.75 ug/m3 10.6 ug/m3 22.51 C 51.71 % 1,003.06 mbar 0.82 m/s 336.13 Deg 0.4 ug/m3
2021-05-18 18:00 8.82 ug/m3 95.13 ug/m3 10 ug/m3 24.19 C 42.97 % 1,002.80 mbar 1.47 m/s 96.7 Deg 0.48 ug/m3
2021-05-18 17:00 6.11 ug/m3 97.55 ug/m3 8.2 ug/m3 24.29 C 42.69 % 1,003.03 mbar 1.41 m/s 104.85 Deg 0.75 ug/m3
2021-05-18 16:00 5.1 ug/m3 90.57 ug/m3 10 ug/m3 24.25 C 46.36 % 1,003.25 mbar 2.25 m/s 21.65 Deg 0.84 ug/m3
2021-05-18 15:00 4.6 ug/m3 91.06 ug/m3 11.4 ug/m3 23.52 C 53.52 % 1,003.79 mbar 2.51 m/s 17.88 Deg 0.85 ug/m3

It is to be noted that the data is provisional and subject to quality assurance procedures. For validated data kindly refer your request to contact.air@era.org.mt